Observation data for Stamford on 11/11/2019      Previous  Date       Current Mesonet Observations  Soil Data  Daily Summary Page  Observations in Plain Language
KST2 110600Z 20011KT 18/14 A2984 RMK A01 T01750144  RH  082%=      5-min Rain = 0
KST2 110601Z 20012KT 17/14 A2984 RMK A01 T01740144  RH  082%=      5-min Rain = 0
KST2 110602Z 20013KT 18/15 A2984 RMK A01 T01750145  RH  082%=      5-min Rain = 0
KST2 110603Z 20012KT 18/14 A2984 RMK A01 T01750144  RH  082%=      5-min Rain = 0
KST2 110604Z 20010KT 18/14 A2984 RMK A01 T01750144  RH  082%=      5-min Rain = 0
KST2 110605Z 20010KT 17/14 A2984 RMK A01 T01740144  RH  082%=      5-min Rain = 0
KST2 110606Z 20011KT 17/14 A2984 RMK A01 T01740144  RH  083%=      5-min Rain = 0
KST2 110607Z 20010KT 17/14 A2984 RMK A01 T01730144  RH  083%=      5-min Rain = 0
KST2 110608Z 20011KT 17/14 A2984 RMK A01 T01730144  RH  083%=      5-min Rain = 0
KST2 110609Z 20011KT 17/14 A2984 RMK A01 T01730144  RH  083%=      5-min Rain = 0
KST2 110610Z 20011KT 17/14 A2984 RMK A01 T01730144  RH  083%=      5-min Rain = 0
KST2 110611Z 20009KT 17/14 A2984 RMK A01 T01730144  RH  083%=      5-min Rain = 0
KST2 110612Z 20010KT 17/14 A2984 RMK A01 T01730144  RH  083%=      5-min Rain = 0
KST2 110613Z 20012KT 17/14 A2984 RMK A01 T01720144  RH  083%=      5-min Rain = 0
KST2 110614Z 20011KT 17/14 A2984 RMK A01 T01720144  RH  083%=      5-min Rain = 0
KST2 110615Z 20011KT 17/14 A2984 RMK A01 T01730144  RH  083%=      5-min Rain = 0
KST2 110616Z 20011KT 17/14 A2984 RMK A01 T01720143  RH  083%=      5-min Rain = 0
KST2 110617Z 20010KT 17/14 A2983 RMK A01 T01720143  RH  083%=      5-min Rain = 0
KST2 110618Z 20012KT 17/14 A2983 RMK A01 T01720143  RH  083%=      5-min Rain = 0
KST2 110619Z 20010KT 17/14 A2983 RMK A01 T01710143  RH  084%=      5-min Rain = 0
KST2 110620Z 20012KT 17/14 A2983 RMK A01 T01720144  RH  084%=      5-min Rain = 0
KST2 110621Z 20011KT 17/14 A2983 RMK A01 T01710143  RH  084%=      5-min Rain = 0
KST2 110622Z 20012KT 17/14 A2983 RMK A01 T01710143  RH  084%=      5-min Rain = 0
KST2 110623Z 20011KT 17/14 A2983 RMK A01 T01710143  RH  084%=      5-min Rain = 0
KST2 110624Z 20011KT 17/14 A2983 RMK A01 T01710143  RH  084%=      5-min Rain = 0
KST2 110625Z 20011KT 17/14 A2983 RMK A01 T01700143  RH  084%=      5-min Rain = 0
KST2 110626Z 20013KT 17/14 A2983 RMK A01 T01700143  RH  084%=      5-min Rain = 0
KST2 110627Z 20012KT 17/14 A2983 RMK A01 T01700143  RH  084%=      5-min Rain = 0
KST2 110628Z 20012KT 17/14 A2983 RMK A01 T01690143  RH  084%=      5-min Rain = 0
KST2 110629Z 20011KT 17/14 A2983 RMK A01 T01690143  RH  084%=      5-min Rain = 0
KST2 110630Z 20013KT 17/14 A2983 RMK A01 T01680142  RH  085%=      5-min Rain = 0
KST2 110631Z 20012KT 17/14 A2983 RMK A01 T01680142  RH  085%=      5-min Rain = 0
KST2 110632Z 20011KT 17/14 A2983 RMK A01 T01680142  RH  085%=      5-min Rain = 0
KST2 110633Z 20011KT 17/14 A2983 RMK A01 T01680142  RH  085%=      5-min Rain = 0
KST2 110634Z 21011KT 17/14 A2983 RMK A01 T01680142  RH  085%=      5-min Rain = 0
KST2 110635Z 20012KT 17/14 A2983 RMK A01 T01680142  RH  085%=      5-min Rain = 0
KST2 110636Z 20012KT 17/14 A2983 RMK A01 T01680142  RH  085%=      5-min Rain = 0
KST2 110637Z 20012KT 17/14 A2983 RMK A01 T01670142  RH  085%=      5-min Rain = 0
KST2 110638Z 20011KT 17/14 A2983 RMK A01 T01670142  RH  085%=      5-min Rain = 0
KST2 110639Z 20012KT 17/14 A2983 RMK A01 T01670142  RH  085%=      5-min Rain = 0
KST2 110640Z 20012KT 17/14 A2983 RMK A01 T01670142  RH  085%=      5-min Rain = 0
KST2 110641Z 20011KT 17/14 A2983 RMK A01 T01660142  RH  085%=      5-min Rain = 0
KST2 110642Z 20012KT 17/14 A2983 RMK A01 T01660142  RH  086%=      5-min Rain = 0
KST2 110643Z 20013KT 17/14 A2983 RMK A01 T01660142  RH  086%=      5-min Rain = 0
KST2 110644Z 20011KT 17/14 A2983 RMK A01 T01660142  RH  086%=      5-min Rain = 0
KST2 110645Z 20012KT 17/14 A2983 RMK A01 T01660142  RH  086%=      5-min Rain = 0
KST2 110646Z 20012KT 17/14 A2983 RMK A01 T01660142  RH  086%=      5-min Rain = 0
KST2 110647Z 20014KT 17/14 A2983 RMK A01 T01660142  RH  086%=      5-min Rain = 0
KST2 110648Z 20012KT 17/14 A2983 RMK A01 T01660142  RH  086%=      5-min Rain = 0
KST2 110649Z 20013KT 17/14 A2983 RMK A01 T01660142  RH  086%=      5-min Rain = 0
KST2 110650Z 20012KT 17/14 A2983 RMK A01 T01660142  RH  086%=      5-min Rain = 0
KST2 110651Z 20013KT 17/14 A2983 RMK A01 T01660142  RH  086%=      5-min Rain = 0
KST2 110652Z 20012KT 17/14 A2983 RMK A01 T01660142  RH  086%=      5-min Rain = 0
KST2 110653Z 20012KT 17/14 A2983 RMK A01 T01650142  RH  086%=      5-min Rain = 0
KST2 110654Z 20011KT 17/14 A2983 RMK A01 T01650141  RH  086%=      5-min Rain = 0
KST2 110655Z 20012KT 17/14 A2983 RMK A01 T01650142  RH  086%=      5-min Rain = 0
KST2 110656Z 20011KT 17/14 A2983 RMK A01 T01650142  RH  086%=      5-min Rain = 0
KST2 110657Z 20012KT 16/14 A2983 RMK A01 T01640141  RH  086%=      5-min Rain = 0
KST2 110658Z 20011KT 17/14 A2983 RMK A01 T01650142  RH  086%=      5-min Rain = 0
KST2 110659Z 20011KT 17/14 A2983 RMK A01 T01650141  RH  086%=      5-min Rain = 0
KST2 110700Z 20012KT 17/14 A2983 RMK A01 T01650142  RH  086%=      5-min Rain = 0
KST2 110701Z 21012KT 16/14 A2983 RMK A01 T01640141  RH  086%=      5-min Rain = 0
KST2 110702Z 20012KT 16/14 A2983 RMK A01 T01640141  RH  086%=      5-min Rain = 0
KST2 110703Z 21013KT 17/14 A2983 RMK A01 T01650141  RH  086%=      5-min Rain = 0
KST2 110704Z 20013KT 16/14 A2983 RMK A01 T01640141  RH  086%=      5-min Rain = 0
KST2 110705Z 21013KT 17/14 A2983 RMK A01 T01650141  RH  086%=      5-min Rain = 0
KST2 110706Z 21012KT 17/14 A2983 RMK A01 T01650141  RH  086%=      5-min Rain = 0
KST2 110707Z 21012KT 17/14 A2983 RMK A01 T01650141  RH  086%=      5-min Rain = 0
KST2 110708Z 21012KT 17/14 A2983 RMK A01 T01650141  RH  086%=      5-min Rain = 0
KST2 110709Z 21013KT 17/14 A2983 RMK A01 T01650141  RH  086%=      5-min Rain = 0
KST2 110710Z 21012KT 17/14 A2983 RMK A01 T01650141  RH  086%=      5-min Rain = 0
KST2 110711Z 21012KT 16/14 A2983 RMK A01 T01640141  RH  086%=      5-min Rain = 0
KST2 110712Z 21012KT 16/14 A2983 RMK A01 T01640141  RH  086%=      5-min Rain = 0
KST2 110713Z 20012KT 16/14 A2983 RMK A01 T01640141  RH  086%=      5-min Rain = 0
KST2 110714Z 20013KT 16/14 A2983 RMK A01 T01640141  RH  086%=      5-min Rain = 0
KST2 110715Z 20012KT 16/14 A2983 RMK A01 T01630141  RH  086%=      5-min Rain = 0
KST2 110716Z 20014KT 16/14 A2983 RMK A01 T01640141  RH  086%=      5-min Rain = 0
KST2 110717Z 20014KT 16/14 A2983 RMK A01 T01640141  RH  086%=      5-min Rain = 0
KST2 110718Z 20013KT 16/14 A2983 RMK A01 T01640141  RH  086%=      5-min Rain = 0
KST2 110719Z 20012KT 16/14 A2983 RMK A01 T01640141  RH  086%=      5-min Rain = 0
KST2 110720Z 21013KT 16/14 A2983 RMK A01 T01640141  RH  086%=      5-min Rain = 0
KST2 110721Z 21013KT 16/14 A2983 RMK A01 T01640141  RH  086%=      5-min Rain = 0
KST2 110722Z 21013KT 16/14 A2983 RMK A01 T01640141  RH  086%=      5-min Rain = 0
KST2 110723Z 21013KT 16/14 A2983 RMK A01 T01640141  RH  086%=      5-min Rain = 0
KST2 110724Z 20014KT 16/14 A2983 RMK A01 T01640141  RH  086%=      5-min Rain = 0
KST2 110725Z 21014KT 16/14 A2983 RMK A01 T01640141  RH  086%=      5-min Rain = 0
KST2 110726Z 21014KT 16/14 A2983 RMK A01 T01640141  RH  086%=      5-min Rain = 0
KST2 110727Z 21013KT 16/14 A2983 RMK A01 T01630141  RH  086%=      5-min Rain = 0
KST2 110728Z 20014KT 16/14 A2983 RMK A01 T01630140  RH  086%=      5-min Rain = 0
KST2 110729Z 21013KT 16/14 A2983 RMK A01 T01630141  RH  086%=      5-min Rain = 0
KST2 110730Z 21015KT 16/14 A2983 RMK A01 T01630140  RH  086%=      5-min Rain = 0
KST2 110731Z 21014KT 16/14 A2983 RMK A01 T01630140  RH  086%=      5-min Rain = 0
KST2 110732Z 21015KT 16/14 A2983 RMK A01 T01630140  RH  086%=      5-min Rain = 0
KST2 110733Z 21015KT 16/14 A2983 RMK A01 T01630140  RH  086%=      5-min Rain = 0
KST2 110734Z 21015KT 16/14 A2983 RMK A01 T01630140  RH  086%=      5-min Rain = 0
KST2 110735Z 21014KT 16/14 A2983 RMK A01 T01630140  RH  086%=      5-min Rain = 0
KST2 110736Z 21013KT 16/14 A2983 RMK A01 T01630140  RH  086%=      5-min Rain = 0
KST2 110737Z 21015KT 16/14 A2983 RMK A01 T01630140  RH  086%=      5-min Rain = 0
KST2 110738Z 20013KT 16/14 A2983 RMK A01 T01630140  RH  086%=      5-min Rain = 0
KST2 110739Z 21013KT 16/14 A2983 RMK A01 T01630140  RH  086%=      5-min Rain = 0
KST2 110740Z 20013KT 16/14 A2983 RMK A01 T01620140  RH  087%=      5-min Rain = 0
KST2 110741Z 20012KT 16/14 A2983 RMK A01 T01620140  RH  087%=      5-min Rain = 0
KST2 110742Z 20013KT 16/14 A2983 RMK A01 T01620140  RH  087%=      5-min Rain = 0
KST2 110743Z 20013KT 16/14 A2983 RMK A01 T01620140  RH  087%=      5-min Rain = 0
KST2 110744Z 20013KT 16/14 A2983 RMK A01 T01620140  RH  087%=      5-min Rain = 0
KST2 110745Z 20013KT 16/14 A2983 RMK A01 T01620140  RH  087%=      5-min Rain = 0
KST2 110746Z 21014KT 16/14 A2983 RMK A01 T01620140  RH  087%=      5-min Rain = 0
KST2 110747Z 20012KT 16/14 A2983 RMK A01 T01620140  RH  087%=      5-min Rain = 0
KST2 110748Z 21012KT 16/14 A2983 RMK A01 T01620140  RH  087%=      5-min Rain = 0
KST2 110749Z 21013KT 16/14 A2983 RMK A01 T01620140  RH  087%=      5-min Rain = 0
KST2 110750Z 20012KT 16/14 A2983 RMK A01 T01620140  RH  087%=      5-min Rain = 0
KST2 110751Z 20014KT 16/14 A2983 RMK A01 T01620140  RH  087%=      5-min Rain = 0
KST2 110752Z 20014KT 16/14 A2983 RMK A01 T01620139  RH  087%=      5-min Rain = 0
KST2 110753Z 20013KT 16/14 A2983 RMK A01 T01620140  RH  086%=      5-min Rain = 0
KST2 110754Z 20013KT 16/14 A2983 RMK A01 T01620140  RH  086%=      5-min Rain = 0
KST2 110755Z 20014KT 16/14 A2983 RMK A01 T01620139  RH  086%=      5-min Rain = 0
KST2 110756Z 20014KT 16/14 A2983 RMK A01 T01630140  RH  086%=      5-min Rain = 0
KST2 110757Z 21013KT 16/14 A2983 RMK A01 T01620139  RH  086%=      5-min Rain = 0
KST2 110758Z 20013KT 16/14 A2983 RMK A01 T01620139  RH  086%=      5-min Rain = 0
KST2 110759Z 20015KT 16/14 A2983 RMK A01 T01620140  RH  086%=      5-min Rain = 0
KST2 110800Z 21013KT 16/14 A2983 RMK A01 T01620139  RH  086%=      5-min Rain = 0
KST2 110801Z 21014KT 16/14 A2983 RMK A01 T01630139  RH  086%=      5-min Rain = 0
KST2 110802Z 20013KT 16/14 A2983 RMK A01 T01630140  RH  086%=      5-min Rain = 0
KST2 110803Z 21011KT 16/14 A2983 RMK A01 T01620139  RH  086%=      5-min Rain = 0
KST2 110804Z 21013KT 16/14 A2983 RMK A01 T01620139  RH  086%=      5-min Rain = 0
KST2 110805Z 21012KT 16/14 A2983 RMK A01 T01620139  RH  086%=      5-min Rain = 0
KST2 110806Z 21012KT 16/14 A2983 RMK A01 T01620139  RH  087%=      5-min Rain = 0
KST2 110807Z 21012KT 16/14 A2983 RMK A01 T01620139  RH  087%=      5-min Rain = 0
KST2 110808Z 21013KT 16/14 A2983 RMK A01 T01620139  RH  087%=      5-min Rain = 0
KST2 110809Z 21011KT 16/14 A2984 RMK A01 T01620140  RH  087%=      5-min Rain = 0
KST2 110810Z 21012KT 16/14 A2984 RMK A01 T01610139  RH  087%=      5-min Rain = 0
KST2 110811Z 21011KT 16/14 A2984 RMK A01 T01610139  RH  087%=      5-min Rain = 0
KST2 110812Z 21011KT 16/14 A2984 RMK A01 T01610139  RH  087%=      5-min Rain = 0
KST2 110813Z 21011KT 16/14 A2984 RMK A01 T01610139  RH  087%=      5-min Rain = 0
KST2 110814Z 21012KT 16/14 A2984 RMK A01 T01610139  RH  087%=      5-min Rain = 0
KST2 110815Z 21011KT 16/14 A2984 RMK A01 T01610139  RH  087%=      5-min Rain = 0
KST2 110816Z 22010KT 16/14 A2984 RMK A01 T01610139  RH  087%=      5-min Rain = 0
KST2 110817Z 21010KT 16/14 A2984 RMK A01 T01610139  RH  087%=      5-min Rain = 0
KST2 110818Z 21010KT 16/14 A2984 RMK A01 T01610139  RH  087%=      5-min Rain = 0
KST2 110819Z 21011KT 16/14 A2984 RMK A01 T01610139  RH  087%=      5-min Rain = 0
KST2 110820Z 21011KT 16/14 A2984 RMK A01 T01610139  RH  087%=      5-min Rain = 0
KST2 110821Z 21010KT 16/14 A2984 RMK A01 T01610139  RH  087%=      5-min Rain = 0
KST2 110822Z 21011KT 16/14 A2984 RMK A01 T01600139  RH  087%=      5-min Rain = 0
KST2 110823Z 21010KT 16/14 A2984 RMK A01 T01600139  RH  087%=      5-min Rain = 0
KST2 110824Z 21012KT 16/14 A2984 RMK A01 T01600139  RH  087%=      5-min Rain = 0
KST2 110825Z 21010KT 16/14 A2984 RMK A01 T01610139  RH  087%=      5-min Rain = 0
KST2 110826Z 21010KT 16/14 A2984 RMK A01 T01600139  RH  087%=      5-min Rain = 0
KST2 110827Z 21010KT 16/14 A2984 RMK A01 T01600138  RH  087%=      5-min Rain = 0
KST2 110828Z 21010KT 16/14 A2984 RMK A01 T01600138  RH  087%=      5-min Rain = 0
KST2 110829Z 21010KT 16/14 A2984 RMK A01 T01600139  RH  087%=      5-min Rain = 0
KST2 110830Z 21010KT 16/14 A2984 RMK A01 T01600138  RH  087%=      5-min Rain = 0
KST2 110831Z 21010KT 16/14 A2984 RMK A01 T01600138  RH  087%=      5-min Rain = 0
KST2 110832Z 21009KT 16/14 A2984 RMK A01 T01600138  RH  087%=      5-min Rain = 0
KST2 110833Z 21011KT 16/14 A2984 RMK A01 T01590138  RH  087%=      5-min Rain = 0
KST2 110834Z 21010KT 16/14 A2984 RMK A01 T01590138  RH  087%=      5-min Rain = 0
KST2 110835Z 21010KT 16/14 A2984 RMK A01 T01590138  RH  087%=      5-min Rain = 0
KST2 110836Z 21010KT 16/14 A2984 RMK A01 T01590138  RH  087%=      5-min Rain = 0
KST2 110837Z 21009KT 16/14 A2984 RMK A01 T01590138  RH  087%=      5-min Rain = 0
KST2 110838Z 21010KT 16/14 A2984 RMK A01 T01580138  RH  088%=      5-min Rain = 0
KST2 110839Z 21009KT 16/14 A2984 RMK A01 T01580138  RH  088%=      5-min Rain = 0
KST2 110840Z 21009KT 16/14 A2984 RMK A01 T01580138  RH  088%=      5-min Rain = 0
KST2 110841Z 21009KT 16/14 A2984 RMK A01 T01580138  RH  088%=      5-min Rain = 0
KST2 110842Z 21009KT 16/14 A2984 RMK A01 T01580138  RH  088%=      5-min Rain = 0
KST2 110843Z 21009KT 16/14 A2984 RMK A01 T01580138  RH  088%=      5-min Rain = 0
KST2 110844Z 21008KT 16/14 A2984 RMK A01 T01580138  RH  088%=      5-min Rain = 0
KST2 110845Z 21008KT 16/14 A2984 RMK A01 T01580138  RH  088%=      5-min Rain = 0
KST2 110846Z 21008KT 16/14 A2983 RMK A01 T01570138  RH  088%=      5-min Rain = 0
KST2 110847Z 21009KT 16/14 A2983 RMK A01 T01570138  RH  088%=      5-min Rain = 0
KST2 110848Z 21008KT 16/14 A2983 RMK A01 T01570138  RH  088%=      5-min Rain = 0
KST2 110849Z 21008KT 16/14 A2983 RMK A01 T01570137  RH  088%=      5-min Rain = 0
KST2 110850Z 21008KT 16/14 A2983 RMK A01 T01570137  RH  088%=      5-min Rain = 0
KST2 110851Z 21008KT 16/14 A2983 RMK A01 T01570137  RH  088%=      5-min Rain = 0
KST2 110852Z 21008KT 16/14 A2983 RMK A01 T01570137  RH  088%=      5-min Rain = 0
KST2 110853Z 20008KT 16/14 A2983 RMK A01 T01570137  RH  088%=      5-min Rain = 0
KST2 110854Z 21008KT 16/14 A2983 RMK A01 T01570137  RH  088%=      5-min Rain = 0
KST2 110855Z 21008KT 16/14 A2983 RMK A01 T01570137  RH  088%=      5-min Rain = 0
KST2 110856Z 20009KT 16/14 A2983 RMK A01 T01560137  RH  088%=      5-min Rain = 0
KST2 110857Z 21009KT 16/14 A2983 RMK A01 T01560137  RH  088%=      5-min Rain = 0
KST2 110858Z 21008KT 16/14 A2983 RMK A01 T01560137  RH  088%=      5-min Rain = 0
KST2 110859Z 21008KT 16/14 A2983 RMK A01 T01560137  RH  088%=      5-min Rain = 0
KST2 110900Z 21008KT 16/14 A2983 RMK A01 T01560137  RH  088%=      5-min Rain = 0
KST2 110901Z 21009KT 16/14 A2983 RMK A01 T01560137  RH  088%=      5-min Rain = 0
KST2 110902Z 21009KT 16/14 A2983 RMK A01 T01560137  RH  089%=      5-min Rain = 0
KST2 110903Z 21008KT 16/14 A2983 RMK A01 T01560138  RH  089%=      5-min Rain = 0
KST2 110904Z 21009KT 16/14 A2983 RMK A01 T01560138  RH  089%=      5-min Rain = 0
KST2 110905Z 21009KT 16/14 A2983 RMK A01 T01560137  RH  089%=      5-min Rain = 0
KST2 110906Z 21009KT 16/14 A2983 RMK A01 T01560137  RH  089%=      5-min Rain = 0
KST2 110907Z 21009KT 16/14 A2983 RMK A01 T01560137  RH  089%=      5-min Rain = 0
KST2 110908Z 21009KT 16/14 A2983 RMK A01 T01560138  RH  089%=      5-min Rain = 0
KST2 110909Z 21009KT 16/14 A2984 RMK A01 T01560137  RH  089%=      5-min Rain = 0
KST2 110910Z 21009KT 16/14 A2984 RMK A01 T01560137  RH  089%=      5-min Rain = 0
KST2 110911Z 21009KT 16/14 A2984 RMK A01 T01560137  RH  089%=      5-min Rain = 0
KST2 110912Z 21010KT 16/14 A2984 RMK A01 T01570138  RH  089%=      5-min Rain = 0
KST2 110913Z 21010KT 16/14 A2984 RMK A01 T01560138  RH  089%=      5-min Rain = 0
KST2 110914Z 21010KT 16/14 A2984 RMK A01 T01560138  RH  089%=      5-min Rain = 0
KST2 110915Z 21010KT 16/14 A2984 RMK A01 T01560138  RH  089%=      5-min Rain = 0
KST2 110916Z 21010KT 16/14 A2984 RMK A01 T01560138  RH  089%=      5-min Rain = 0
KST2 110917Z 21009KT 16/14 A2984 RMK A01 T01560138  RH  089%=      5-min Rain = 0
KST2 110918Z 21009KT 16/14 A2984 RMK A01 T01560138  RH  089%=      5-min Rain = 0
KST2 110919Z 21009KT 16/14 A2984 RMK A01 T01560138  RH  089%=      5-min Rain = 0
KST2 110920Z 21009KT 16/14 A2984 RMK A01 T01560138  RH  089%=      5-min Rain = 0
KST2 110921Z 20009KT 16/14 A2984 RMK A01 T01560138  RH  089%=      5-min Rain = 0
KST2 110922Z 20010KT 16/14 A2984 RMK A01 T01560138  RH  089%=      5-min Rain = 0
KST2 110923Z 21010KT 16/14 A2984 RMK A01 T01560138  RH  089%=      5-min Rain = 0
KST2 110924Z 20009KT 16/14 A2984 RMK A01 T01560138  RH  089%=      5-min Rain = 0
KST2 110925Z 20010KT 16/14 A2984 RMK A01 T01560138  RH  089%=      5-min Rain = 0
KST2 110926Z 20010KT 16/14 A2984 RMK A01 T01560138  RH  089%=      5-min Rain = 0
KST2 110927Z 20009KT 16/14 A2984 RMK A01 T01560138  RH  089%=      5-min Rain = 0
KST2 110928Z 20009KT 16/14 A2984 RMK A01 T01560138  RH  089%=      5-min Rain = 0
KST2 110929Z 20009KT 16/14 A2984 RMK A01 T01560138  RH  089%=      5-min Rain = 0
KST2 110930Z 20009KT 16/14 A2984 RMK A01 T01570138  RH  089%=      5-min Rain = 0
KST2 110931Z 20009KT 16/14 A2984 RMK A01 T01560138  RH  089%=      5-min Rain = 0
KST2 110932Z 20009KT 16/14 A2984 RMK A01 T01560138  RH  089%=      5-min Rain = 0
KST2 110933Z 20009KT 16/14 A2984 RMK A01 T01560138  RH  089%=      5-min Rain = 0
KST2 110934Z 20008KT 16/14 A2984 RMK A01 T01560137  RH  089%=      5-min Rain = 0
KST2 110935Z 20008KT 16/14 A2984 RMK A01 T01560138  RH  089%=      5-min Rain = 0
KST2 110936Z 21007KT 16/14 A2984 RMK A01 T01560138  RH  089%=      5-min Rain = 0
KST2 110937Z 21006KT 16/14 A2985 RMK A01 T01560138  RH  089%=      5-min Rain = 0
KST2 110938Z 22005KT 16/14 A2985 RMK A01 T01560138  RH  089%=      5-min Rain = 0
KST2 110939Z 22005KT 16/14 A2985 RMK A01 T01560138  RH  089%=      5-min Rain = 0
KST2 110940Z 21006KT 16/14 A2985 RMK A01 T01560138  RH  089%=      5-min Rain = 0
KST2 110941Z 21007KT 16/14 A2985 RMK A01 T01560138  RH  089%=      5-min Rain = 0
KST2 110942Z 21007KT 16/14 A2985 RMK A01 T01560138  RH  089%=      5-min Rain = 0
KST2 110943Z 22007KT 16/14 A2985 RMK A01 T01560138  RH  089%=      5-min Rain = 0
KST2 110944Z 21007KT 16/14 A2985 RMK A01 T01560138  RH  089%=      5-min Rain = 0
KST2 110945Z 21007KT 16/14 A2985 RMK A01 T01560138  RH  089%=      5-min Rain = 0
KST2 110946Z 22007KT 16/14 A2985 RMK A01 T01560138  RH  089%=      5-min Rain = 0
KST2 110947Z 22006KT 16/14 A2985 RMK A01 T01550138  RH  089%=      5-min Rain = 0
KST2 110948Z 22006KT 16/14 A2985 RMK A01 T01550137  RH  089%=      5-min Rain = 0
KST2 110949Z 22006KT 16/14 A2985 RMK A01 T01550137  RH  089%=      5-min Rain = 0
KST2 110950Z 22007KT 16/14 A2985 RMK A01 T01550137  RH  089%=      5-min Rain = 0
KST2 110951Z 22007KT 15/14 A2985 RMK A01 T01540137  RH  089%=      5-min Rain = 0
KST2 110952Z 21008KT 15/14 A2985 RMK A01 T01540137  RH  089%=      5-min Rain = 0
KST2 110953Z 21008KT 15/14 A2985 RMK A01 T01540137  RH  090%=      5-min Rain = 0
KST2 110954Z 21007KT 15/14 A2985 RMK A01 T01540137  RH  090%=      5-min Rain = 0
KST2 110955Z 21007KT 15/14 A2985 RMK A01 T01530137  RH  090%=      5-min Rain = 0
KST2 110956Z 21007KT 15/14 A2985 RMK A01 T01530137  RH  090%=      5-min Rain = 0
KST2 110957Z 21007KT 15/14 A2985 RMK A01 T01530137  RH  090%=      5-min Rain = 0
KST2 110958Z 22006KT 15/14 A2985 RMK A01 T01530137  RH  090%=      5-min Rain = 0
KST2 110959Z 22006KT 15/14 A2985 RMK A01 T01530137  RH  090%=      5-min Rain = 0
KST2 111000Z 22005KT 15/14 A2985 RMK A01 T01530137  RH  090%=      5-min Rain = 0
KST2 111001Z 22005KT 15/14 A2985 RMK A01 T01530137  RH  090%=      5-min Rain = 0
KST2 111002Z 22005KT 15/14 A2986 RMK A01 T01530137  RH  090%=      5-min Rain = 0
KST2 111003Z 22004KT 15/14 A2986 RMK A01 T01530137  RH  090%=      5-min Rain = 0
KST2 111004Z 22005KT 15/14 A2986 RMK A01 T01520137  RH  090%=      5-min Rain = 0
KST2 111005Z 22005KT 15/14 A2986 RMK A01 T01530137  RH  090%=      5-min Rain = 0
KST2 111006Z 21005KT 15/14 A2986 RMK A01 T01530137  RH  090%=      5-min Rain = 0
KST2 111007Z 21005KT 15/14 A2986 RMK A01 T01530137  RH  090%=      5-min Rain = 0
KST2 111008Z 21006KT 15/14 A2986 RMK A01 T01530137  RH  090%=      5-min Rain = 0
KST2 111009Z 21006KT 15/14 A2986 RMK A01 T01520137  RH  090%=      5-min Rain = 0
KST2 111010Z 22006KT 15/14 A2986 RMK A01 T01520137  RH  090%=      5-min Rain = 0
KST2 111011Z 22005KT 15/14 A2986 RMK A01 T01520137  RH  091%=      5-min Rain = 0
KST2 111012Z 23005KT 15/14 A2986 RMK A01 T01520137  RH  091%=      5-min Rain = 0
KST2 111013Z 23004KT 15/14 A2986 RMK A01 T01520137  RH  090%=      5-min Rain = 0
KST2 111014Z 23004KT 15/14 A2986 RMK A01 T01520137  RH  090%=      5-min Rain = 0
KST2 111015Z 24003KT 15/14 A2986 RMK A01 T01520137  RH  090%=      5-min Rain = 0
KST2 111016Z 24003KT 15/14 A2987 RMK A01 T01520137  RH  091%=      5-min Rain = 0
KST2 111017Z 24003KT 15/14 A2987 RMK A01 T01520136  RH  091%=      5-min Rain = 0
KST2 111018Z 24003KT 15/14 A2987 RMK A01 T01520136  RH  091%=      5-min Rain = 0
KST2 111019Z 24004KT 15/14 A2987 RMK A01 T01520136  RH  091%=      5-min Rain = 0
KST2 111020Z 24005KT 15/14 A2987 RMK A01 T01520137  RH  091%=      5-min Rain = 0
KST2 111021Z 23006KT 15/14 A2987 RMK A01 T01520136  RH  091%=      5-min Rain = 0
KST2 111022Z 23006KT 15/14 A2987 RMK A01 T01510136  RH  091%=      5-min Rain = 0
KST2 111023Z 24006KT 15/14 A2987 RMK A01 T01510136  RH  091%=      5-min Rain = 0
KST2 111024Z 24006KT 15/14 A2987 RMK A01 T01500136  RH  091%=      5-min Rain = 0
KST2 111025Z 24006KT 15/14 A2987 RMK A01 T01500136  RH  091%=      5-min Rain = 0
KST2 111026Z 25005KT 15/14 A2987 RMK A01 T01500136  RH  091%=      5-min Rain = 0
KST2 111027Z 25005KT 15/14 A2987 RMK A01 T01500136  RH  091%=      5-min Rain = 0
KST2 111028Z 26004KT 15/14 A2987 RMK A01 T01500136  RH  091%=      5-min Rain = 0
KST2 111029Z 26004KT 15/14 A2987 RMK A01 T01500136  RH  091%=      5-min Rain = 0
KST2 111030Z 25004KT 15/14 A2987 RMK A01 T01490136  RH  092%=      5-min Rain = 0
KST2 111031Z 25004KT 15/14 A2987 RMK A01 T01490136  RH  092%=      5-min Rain = 0
KST2 111032Z 25005KT 15/14 A2987 RMK A01 T01490136  RH  092%=      5-min Rain = 0
KST2 111033Z 25005KT 15/14 A2987 RMK A01 T01490136  RH  092%=      5-min Rain = 0
KST2 111034Z 25005KT 15/14 A2987 RMK A01 T01490136  RH  092%=      5-min Rain = 0
KST2 111035Z 25004KT 15/14 A2987 RMK A01 T01490135  RH  092%=      5-min Rain = 0
KST2 111036Z 26004KT 15/14 A2987 RMK A01 T01480135  RH  092%=      5-min Rain = 0
KST2 111037Z 26003KT 15/14 A2987 RMK A01 T01480135  RH  092%=      5-min Rain = 0
KST2 111038Z 26004KT 15/14 A2987 RMK A01 T01480135  RH  092%=      5-min Rain = 0
KST2 111039Z 27004KT 15/14 A2987 RMK A01 T01470135  RH  092%=      5-min Rain = 0
KST2 111040Z 26005KT 15/14 A2987 RMK A01 T01480135  RH  092%=      5-min Rain = 0
KST2 111041Z 26005KT 15/14 A2987 RMK A01 T01480136  RH  092%=      5-min Rain = 0
KST2 111042Z 25006KT 15/14 A2987 RMK A01 T01470135  RH  092%=      5-min Rain = 0
KST2 111043Z 24007KT 15/14 A2987 RMK A01 T01480135  RH  092%=      5-min Rain = 0
KST2 111044Z 24007KT 15/14 A2987 RMK A01 T01480135  RH  092%=      5-min Rain = 0
KST2 111045Z 24007KT 15/14 A2987 RMK A01 T01480135  RH  092%=      5-min Rain = 0
KST2 111046Z 23008KT 15/14 A2987 RMK A01 T01480135  RH  092%=      5-min Rain = 0
KST2 111047Z 23007KT 15/14 A2987 RMK A01 T01480135  RH  092%=      5-min Rain = 0
KST2 111048Z 23008KT 15/14 A2987 RMK A01 T01480135  RH  092%=      5-min Rain = 0
KST2 111049Z 24007KT 15/14 A2987 RMK A01 T01480136  RH  092%=      5-min Rain = 0
KST2 111050Z 24007KT 15/14 A2987 RMK A01 T01490136  RH  092%=      5-min Rain = 0
KST2 111051Z 23007KT 15/14 A2987 RMK A01 T01490136  RH  092%=      5-min Rain = 0
KST2 111052Z 24007KT 15/14 A2987 RMK A01 T01490136  RH  092%=      5-min Rain = 0
KST2 111053Z 23007KT 15/14 A2987 RMK A01 T01490136  RH  092%=      5-min Rain = 0
KST2 111054Z 23008KT 15/14 A2987 RMK A01 T01500136  RH  092%=      5-min Rain = 0
KST2 111055Z 23008KT 15/14 A2987 RMK A01 T01500136  RH  092%=      5-min Rain = 0
KST2 111056Z 23008KT 15/14 A2987 RMK A01 T01500136  RH  092%=      5-min Rain = 0
KST2 111057Z 24007KT 15/14 A2987 RMK A01 T01500136  RH  092%=      5-min Rain = 0
KST2 111058Z 24007KT 15/14 A2988 RMK A01 T01500136  RH  092%=      5-min Rain = 0
KST2 111059Z 24007KT 15/14 A2988 RMK A01 T01500136  RH  092%=      5-min Rain = 0
KST2 111100Z 24006KT 15/14 A2988 RMK A01 T01500136  RH  092%=      5-min Rain = 0
KST2 111101Z 24006KT 15/14 A2988 RMK A01 T01500136  RH  091%=      5-min Rain = 0
KST2 111102Z 24006KT 15/14 A2988 RMK A01 T01500136  RH  091%=      5-min Rain = 0
KST2 111103Z 24006KT 15/14 A2988 RMK A01 T01500136  RH  091%=      5-min Rain = 0
KST2 111104Z 24006KT 15/14 A2988 RMK A01 T01500136  RH  091%=      5-min Rain = 0
KST2 111105Z 25006KT 15/14 A2988 RMK A01 T01500136  RH  091%=      5-min Rain = 0
KST2 111106Z 25006KT 15/14 A2988 RMK A01 T01500136  RH  091%=      5-min Rain = 0
KST2 111107Z 25006KT 15/14 A2988 RMK A01 T01500136  RH  091%=      5-min Rain = 0
KST2 111108Z 25005KT 15/14 A2989 RMK A01 T01500136  RH  091%=      5-min Rain = 0
KST2 111109Z 25005KT 15/14 A2989 RMK A01 T01500136  RH  091%=      5-min Rain = 0
KST2 111110Z 25005KT 15/14 A2989 RMK A01 T01500136  RH  092%=      5-min Rain = 0
KST2 111111Z 25005KT 15/14 A2989 RMK A01 T01490136  RH  092%=      5-min Rain = 0
KST2 111112Z 25006KT 15/14 A2989 RMK A01 T01490136  RH  092%=      5-min Rain = 0
KST2 111113Z 25006KT 15/14 A2989 RMK A01 T01490136  RH  092%=      5-min Rain = 0
KST2 111114Z 26006KT 15/14 A2989 RMK A01 T01490136  RH  092%=      5-min Rain = 0
KST2 111115Z 26006KT 15/14 A2989 RMK A01 T01490136  RH  092%=      5-min Rain = 0
KST2 111116Z 26006KT 15/14 A299 RMK A01 T01490136  RH  092%=      5-min Rain = 0
KST2 111117Z 26006KT 15/14 A299 RMK A01 T01480136  RH  092%=      5-min Rain = 0
KST2 111118Z 26006KT 15/14 A299 RMK A01 T01490136  RH  092%=      5-min Rain = 0
KST2 111119Z 27006KT 15/14 A299 RMK A01 T01490136  RH  092%=      5-min Rain = 0
KST2 111120Z 27006KT 15/14 A299 RMK A01 T01490136  RH  092%=      5-min Rain = 0
KST2 111121Z 27006KT 15/14 A299 RMK A01 T01490136  RH  092%=      5-min Rain = 0
KST2 111122Z 27007KT 15/14 A2991 RMK A01 T01500136  RH  092%=      5-min Rain = 0
KST2 111123Z 27007KT 15/14 A2991 RMK A01 T01500136  RH  092%=      5-min Rain = 0
KST2 111124Z 27007KT 15/14 A2991 RMK A01 T01500137  RH  092%=      5-min Rain = 0
KST2 111125Z 28007KT 15/14 A2991 RMK A01 T01500137  RH  092%=      5-min Rain = 0
KST2 111126Z 28007KT 15/14 A2991 RMK A01 T01510137  RH  091%=      5-min Rain = 0
KST2 111127Z 28008KT 15/14 A2991 RMK A01 T01510137  RH  091%=      5-min Rain = 0
KST2 111128Z 28007KT 15/14 A2991 RMK A01 T01510137  RH  091%=      5-min Rain = 0
KST2 111129Z 28007KT 15/14 A2991 RMK A01 T01510137  RH  091%=      5-min Rain = 0
KST2 111130Z 29007KT 15/14 A2992 RMK A01 T01510137  RH  091%=      5-min Rain = 0
KST2 111131Z 29007KT 15/14 A2992 RMK A01 T01510137  RH  091%=      5-min Rain = 0
KST2 111132Z 29007KT 15/14 A2992 RMK A01 T01510137  RH  091%=      5-min Rain = 0
KST2 111133Z 29007KT 15/14 A2992 RMK A01 T01500136  RH  091%=      5-min Rain = 0
KST2 111134Z 29007KT 15/14 A2992 RMK A01 T01500136  RH  092%=      5-min Rain = 0
KST2 111135Z 29008KT 15/14 A2992 RMK A01 T01490136  RH  092%=      5-min Rain = 0
KST2 111136Z 30008KT 15/14 A2993 RMK A01 T01490136  RH  092%=      5-min Rain = 0
KST2 111137Z 30008KT 15/14 A2993 RMK A01 T01490136  RH  092%=      5-min Rain = 0
KST2 111138Z 31007KT 15/14 A2993 RMK A01 T01480136  RH  092%=      5-min Rain = 0
KST2 111139Z 30008KT 15/14 A2993 RMK A01 T01480136  RH  092%=      5-min Rain = 0
KST2 111140Z 30008KT 15/14 A2993 RMK A01 T01480136  RH  093%=      5-min Rain = 0
KST2 111141Z 30008KT 15/14 A2993 RMK A01 T01480136  RH  093%=      5-min Rain = 0
KST2 111142Z 30009KT 15/14 A2993 RMK A01 T01470136  RH  093%=      5-min Rain = 0
KST2 111143Z 30009KT 15/14 A2993 RMK A01 T01480136  RH  093%=      5-min Rain = 0
KST2 111144Z 30010KT 15/14 A2993 RMK A01 T01490137  RH  093%=      5-min Rain = 0
KST2 111145Z 31010KT 15/14 A2993 RMK A01 T01490138  RH  093%=      5-min Rain = 0
KST2 111146Z 31010KT 15/14 A2994 RMK A01 T01500138  RH  093%=      5-min Rain = 0
KST2 111147Z 32011KT 15/14 A2994 RMK A01 T01510139  RH  092%=      5-min Rain = 0
KST2 111148Z 32012KT 15/14 A2994 RMK A01 T01520140  RH  092%=      5-min Rain = 0
KST2 111149Z 32017KT 15/14 A2994 RMK A01 T01540141  RH  092%=      5-min Rain = 0
KST2 111150Z 32018KT 16/14 A2994 RMK A01 T01560140  RH  090%=      5-min Rain = 0
KST2 111151Z 33020KT 16/14 A2994 RMK A01 T01570139  RH  089%=      5-min Rain = 0
KST2 111152Z 33021KT 16/14 A2994 RMK A01 T01580137  RH  087%=      5-min Rain = 0
KST2 111153Z 33023KT 16/13 A2995 RMK A01 T01570127  RH  082%=      5-min Rain = 0
KST2 111154Z 33023KT 15/12 A2995 RMK A01 T01540119  RH  080%=      5-min Rain = 0
KST2 111155Z 34022KT 15/12 A2995 RMK A01 T01520116  RH  079%=      5-min Rain = 0
KST2 111156Z 34019KT 15/12 A2995 RMK A01 T01510115  RH  079%=      5-min Rain = 0
KST2 111157Z 34021KT 15/12 A2995 RMK A01 T01500115  RH  079%=      5-min Rain = 0
KST2 111158Z 34018KT 15/11 A2995 RMK A01 T01490114  RH  079%=      5-min Rain = 0
KST2 111159Z 34019KT 15/11 A2996 RMK A01 T01480114  RH  080%=      5-min Rain = 0
KST2 111200Z 34020KT 15/11 A2996 RMK A01 T01480113  RH  080%=      5-min Rain = 0
KST2 111201Z 34020KT 15/11 A2996 RMK A01 T01470112  RH  079%=      5-min Rain = 0
KST2 111202Z 33020KT 15/11 A2996 RMK A01 T01470111  RH  079%=      5-min Rain = 0
KST2 111203Z 33020KT 15/11 A2996 RMK A01 T01460111  RH  079%=      5-min Rain = 0
KST2 111204Z 34020KT 15/11 A2996 RMK A01 T01460110  RH  079%=      5-min Rain = 0
KST2 111205Z 34020KT 15/11 A2996 RMK A01 T01460110  RH  079%=      5-min Rain = 0
KST2 111206Z 34020KT 15/11 A2996 RMK A01 T01460109  RH  079%=      5-min Rain = 0
KST2 111207Z 34019KT 15/11 A2997 RMK A01 T01450109  RH  079%=      5-min Rain = 0
KST2 111208Z 34017KT 15/11 A2997 RMK A01 T01450109  RH  079%=      5-min Rain = 0
KST2 111209Z 33018KT 15/11 A2997 RMK A01 T01450110  RH  079%=      5-min Rain = 0
KST2 111210Z 33016KT 15/11 A2997 RMK A01 T01450110  RH  079%=      5-min Rain = 0
KST2 111211Z 34019KT 14/11 A2997 RMK A01 T01440109  RH  079%=      5-min Rain = 0
KST2 111212Z 34021KT 14/11 A2997 RMK A01 T01440108  RH  079%=      5-min Rain = 0
KST2 111213Z 34019KT 14/11 A2998 RMK A01 T01440107  RH  079%=      5-min Rain = 0
KST2 111214Z 34020KT 14/11 A2998 RMK A01 T01440108  RH  079%=      5-min Rain = 0
KST2 111215Z 34022KT 14/11 A2998 RMK A01 T01430108  RH  079%=      5-min Rain = 0
KST2 111216Z 34022KT 14/11 A2998 RMK A01 T01430107  RH  079%=      5-min Rain = 0
KST2 111217Z 34019KT 14/11 A2998 RMK A01 T01430107  RH  079%=      5-min Rain = 0
KST2 111218Z 34018KT 14/11 A2998 RMK A01 T01430108  RH  079%=      5-min Rain = 0
KST2 111219Z 34020KT 14/11 A2998 RMK A01 T01430108  RH  080%=      5-min Rain = 0
KST2 111220Z 34021KT 14/11 A2998 RMK A01 T01430109  RH  080%=      5-min Rain = 0
KST2 111221Z 34020KT 14/11 A2998 RMK A01 T01430109  RH  080%=      5-min Rain = 0
KST2 111222Z 34021KT 14/11 A2998 RMK A01 T01420109  RH  081%=      5-min Rain = 0
KST2 111223Z 34020KT 14/11 A2999 RMK A01 T01420110  RH  081%=      5-min Rain = 0
KST2 111224Z 34020KT 14/11 A2999 RMK A01 T01420110  RH  081%=      5-min Rain = 0
KST2 111225Z 34020KT 14/11 A2999 RMK A01 T01420112  RH  082%=      5-min Rain = 0
KST2 111226Z 34022KT 14/11 A2999 RMK A01 T01420112  RH  082%=      5-min Rain = 0
KST2 111227Z 34021KT 14/11 A2999 RMK A01 T01420113  RH  083%=      5-min Rain = 0
KST2 111228Z 34022KT 14/11 A2999 RMK A01 T01420113  RH  083%=      5-min Rain = 0
KST2 111229Z 34019KT 14/11 A2999 RMK A01 T01420114  RH  083%=      5-min Rain = 0
KST2 111230Z 34018KT 14/12 A30 RMK A01 T01420115  RH  084%=      5-min Rain = 0
KST2 111231Z 34021KT 14/12 A30 RMK A01 T01410115  RH  084%=      5-min Rain = 0
KST2 111232Z 34022KT 14/12 A30 RMK A01 T01410115  RH  084%=      5-min Rain = 0
KST2 111233Z 34024KT 14/12 A30 RMK A01 T01410115  RH  084%=      5-min Rain = 0
KST2 111234Z 34022KT 14/12 A30 RMK A01 T01410115  RH  085%=      5-min Rain = 0
KST2 111235Z 34023KT 14/12 A3001 RMK A01 T01400116  RH  085%=      5-min Rain = 0
KST2 111236Z 34020KT 14/12 A3001 RMK A01 T01400116  RH  085%=      5-min Rain = 0
KST2 111237Z 34022KT 14/12 A3001 RMK A01 T01400115  RH  085%=      5-min Rain = 0
KST2 111238Z 34031G39KT 14/11 A3001 RMK A01 T01390114  RH  085%=      5-min Rain = 0
KST2 111239Z 34035KT 13/11 A3001 RMK A01 T01330105  RH  083%=      5-min Rain = 0
KST2 111240Z 34036KT 13/10 A3002 RMK A01 T01250099  RH  084%=      5-min Rain = 0
KST2 111241Z 35035G42KT 12/10 A3002 RMK A01 T01200096  RH  085%=      5-min Rain = 0
KST2 111242Z 35034KT 12/09 A3002 RMK A01 T01160094  RH  086%=      5-min Rain = 0
KST2 111243Z 35035G42KT 11/09 A3003 RMK A01 T01140092  RH  086%=      5-min Rain = 0
KST2 111244Z 35035G40KT 11/09 A3003 RMK A01 T01120090  RH  086%=      5-min Rain = 0
KST2 111245Z 36035G40KT 11/09 A3003 RMK A01 T01100088  RH  087%=      5-min Rain = 0
KST2 111246Z 36030G35KT 11/09 A3004 RMK A01 T01080087  RH  087%=      5-min Rain = 0
KST2 111247Z 36033G38KT 11/09 A3004 RMK A01 T01070086  RH  087%=      5-min Rain = 0
KST2 111248Z 35033KT 11/09 A3004 RMK A01 T01050085  RH  087%=      5-min Rain = 0
KST2 111249Z 36033G40KT 10/08 A3004 RMK A01 T01040084  RH  087%=      5-min Rain = 0
KST2 111250Z 36032G38KT 10/08 A3005 RMK A01 T01030082  RH  087%=      5-min Rain = 0
KST2 111251Z 00030G35KT 10/08 A3005 RMK A01 T01010080  RH  087%=      5-min Rain = 0
KST2 111252Z 36028G33KT 10/08 A3005 RMK A01 T01000080  RH  088%=      5-min Rain = 0
KST2 111253Z 36030G37KT 10/08 A3005 RMK A01 T01000080  RH  088%=      5-min Rain = 0
KST2 111254Z 36032KT 10/08 A3006 RMK A01 T00990079  RH  087%=      5-min Rain = 0
KST2 111255Z 36028KT 10/08 A3006 RMK A01 T00980078  RH  088%=      5-min Rain = 0
KST2 111256Z 35028G33KT 10/08 A3006 RMK A01 T00970079  RH  089%=      5-min Rain = 0
KST2 111257Z 35029G34KT 10/08 A3006 RMK A01 T00970079  RH  089%=      5-min Rain = 0
KST2 111258Z 35030G36KT 10/08 A3006 RMK A01 T00960080  RH  090%=      5-min Rain = 0
KST2 111259Z 35033KT 09/08 A3007 RMK A01 T00940077  RH  089%=      5-min Rain = 0
KST2 111300Z 35034KT 09/07 A3007 RMK A01 T00910073  RH  089%=      5-min Rain = 0
KST2 111301Z 35029KT 09/07 A3007 RMK A01 T00880072  RH  089%=      5-min Rain = 0
KST2 111302Z 35028KT 09/07 A3007 RMK A01 T00870072  RH  090%=      5-min Rain = 0
KST2 111303Z 35025KT 09/07 A3008 RMK A01 T00860072  RH  091%=      5-min Rain = 0
KST2 111304Z 35025G31KT 09/07 A3008 RMK A01 T00860072  RH  091%=      5-min Rain = 0
KST2 111305Z 35031KT 09/07 A3008 RMK A01 T00850070  RH  091%=      5-min Rain = 0
KST2 111306Z 35033KT 08/07 A3008 RMK A01 T00830068  RH  090%=      5-min Rain = 0
KST2 111307Z 35033G38KT 08/07 A3008 RMK A01 T00810066  RH  090%=      5-min Rain = 0
KST2 111308Z 35029KT 08/07 A3008 RMK A01 T00800065  RH  090%=      5-min Rain = 0
KST2 111309Z 35029KT 08/07 A3008 RMK A01 T00800066  RH  091%=      5-min Rain = 0
KST2 111310Z 36028KT 08/07 A3008 RMK A01 T00800066  RH  091%=      5-min Rain = 0
KST2 111311Z 35030G38KT 08/07 A3008 RMK A01 T00790066  RH  091%=      5-min Rain = 0
KST2 111312Z 00032G37KT 08/06 A3008 RMK A01 T00780063  RH  090%=      5-min Rain = 0
KST2 111313Z 00030G36KT 08/06 A3008 RMK A01 T00770061  RH  090%=      5-min Rain = 0
KST2 111314Z 00026G34KT 08/06 A3009 RMK A01 T00770061  RH  090%=      5-min Rain = 0
KST2 111315Z 00028G34KT 08/06 A3009 RMK A01 T00760061  RH  090%=      5-min Rain = 0
KST2 111316Z 00028G34KT 08/06 A3009 RMK A01 T00760060  RH  089%=      5-min Rain = 0
KST2 111317Z 00030KT 08/06 A3009 RMK A01 T00760059  RH  089%=      5-min Rain = 0
KST2 111318Z 36027G32KT 08/06 A3009 RMK A01 T00760059  RH  089%=      5-min Rain = 0
KST2 111319Z 00032G39KT 08/06 A3009 RMK A01 T00760060  RH  090%=      5-min Rain = 0
KST2 111320Z 35033KT 08/06 A3009 RMK A01 T00750057  RH  088%=      5-min Rain = 0
KST2 111321Z 36032G39KT 07/06 A301 RMK A01 T00730055  RH  088%=      5-min Rain = 0
KST2 111322Z 35035KT 07/05 A301 RMK A01 T00720054  RH  088%=      5-min Rain = 0
KST2 111323Z 00027G34KT 07/05 A301 RMK A01 T00710053  RH  088%=      5-min Rain = 0
KST2 111324Z 01024KT 07/05 A301 RMK A01 T00700053  RH  089%=      5-min Rain = 0
KST2 111325Z 00029G37KT 07/05 A301 RMK A01 T00700053  RH  089%=      5-min Rain = 0
KST2 111326Z 00031G38KT 07/05 A3011 RMK A01 T00690052  RH  089%=      5-min Rain = 0
KST2 111327Z 00028KT 07/05 A3011 RMK A01 T00680051  RH  089%=      5-min Rain = 0
KST2 111328Z 00026G32KT 07/05 A3011 RMK A01 T00690051  RH  089%=      5-min Rain = 0
KST2 111329Z 01027KT 07/05 A3011 RMK A01 T00680050  RH  089%=      5-min Rain = 0
KST2 111330Z 00028G35KT 07/05 A3011 RMK A01 T00680050  RH  088%=      5-min Rain = 0
KST2 111331Z 01027KT 07/05 A3011 RMK A01 T00670049  RH  088%=      5-min Rain = 0
KST2 111332Z 00025KT 07/05 A3011 RMK A01 T00670049  RH  088%=      5-min Rain = 0
KST2 111333Z 01030G35KT 07/05 A3011 RMK A01 T00660049  RH  089%=      5-min Rain = 0
KST2 111334Z 00029G35KT 07/05 A3011 RMK A01 T00660048  RH  089%=      5-min Rain = 0
KST2 111335Z 01032G37KT 07/05 A3011 RMK A01 T00650048  RH  089%=      5-min Rain = 0
KST2 111336Z 01030G39KT 07/05 A3011 RMK A01 T00650049  RH  089%=      5-min Rain = 0
KST2 111337Z 00031G38KT 06/05 A3011 RMK A01 T00640048  RH  090%=      5-min Rain = 0
KST2 111338Z 00029KT 06/05 A3011 RMK A01 T00630048  RH  090%=      5-min Rain = 0
KST2 111339Z 01032G37KT 06/05 A3012 RMK A01 T00630047  RH  090%=      5-min Rain = 0
KST2 111340Z 00034G39KT 06/05 A3012 RMK A01 T00610045  RH  089%=      5-min Rain = 0
KST2 111341Z 00030KT 06/04 A3012 RMK A01 T00600044  RH  090%=      5-min Rain = 0
KST2 111342Z 35035G41KT 06/05 A3012 RMK A01 T00600045  RH  090%=      5-min Rain = 0
KST2 111343Z 36028G34KT 06/04 A3012 RMK A01 T00600044  RH  090%=      5-min Rain = 0
KST2 111344Z 35033G38KT 06/04 A3012 RMK A01 T00600044  RH  090%=      5-min Rain = 0
KST2 111345Z 35035KT 06/04 A3012 RMK A01 T00590042  RH  089%=      5-min Rain = 0
KST2 111346Z 36031KT 06/04 A3012 RMK A01 T00590042  RH  089%=      5-min Rain = 0
KST2 111347Z 36033KT 06/04 A3013 RMK A01 T00590042  RH  089%=      5-min Rain = 0
KST2 111348Z 36029KT 06/04 A3013 RMK A01 T00580042  RH  089%=      5-min Rain = 0
KST2 111349Z 36029G34KT 06/04 A3013 RMK A01 T00570042  RH  090%=      5-min Rain = 0
KST2 111350Z 00028KT 06/04 A3014 RMK A01 T00570041  RH  089%=      5-min Rain = 0
KST2 111351Z 00026G31KT 06/04 A3014 RMK A01 T00570040  RH  089%=      5-min Rain = 0
KST2 111352Z 36026G31KT 06/04 A3014 RMK A01 T00570040  RH  089%=      5-min Rain = 0
KST2 111353Z 00030KT 06/04 A3014 RMK A01 T00570040  RH  089%=      5-min Rain = 0
KST2 111354Z 00028G34KT 06/04 A3014 RMK A01 T00570039  RH  088%=      5-min Rain = 0
KST2 111355Z 01024G30KT 06/04 A3014 RMK A01 T00560039  RH  088%=      5-min Rain = 0
KST2 111356Z 01022KT 06/04 A3015 RMK A01 T00560039  RH  089%=      5-min Rain = 0
KST2 111357Z 36021KT 06/04 A3015 RMK A01 T00560040  RH  089%=      5-min Rain = 0
KST2 111358Z 35030G37KT 06/04 A3015 RMK A01 T00570041  RH  090%=      5-min Rain = 0
KST2 111359Z 35035G42KT 06/04 A3014 RMK A01 T00560039  RH  089%=      5-min Rain = 0
KST2 111400Z 35036G42KT 05/04 A3014 RMK A01 T00540037  RH  089%=      5-min Rain = 0
KST2 111401Z 36034KT 05/04 A3015 RMK A01 T00530037  RH  090%=      5-min Rain = 0
KST2 111402Z 36028G35KT 05/04 A3015 RMK A01 T00520036  RH  090%=      5-min Rain = 0
KST2 111403Z 36032G38KT 05/04 A3015 RMK A01 T00520037  RH  090%=      5-min Rain = 0
KST2 111404Z 35034KT 05/04 A3015 RMK A01 T00510036  RH  090%=      5-min Rain = 0
KST2 111405Z 36026KT 05/04 A3015 RMK A01 T00500035  RH  090%=      5-min Rain = 0
KST2 111406Z 00031KT 05/04 A3015 RMK A01 T00500036  RH  091%=      5-min Rain = 0
KST2 111407Z 36030G35KT 05/04 A3015 RMK A01 T00500036  RH  091%=      5-min Rain = 0
KST2 111408Z 36029KT 05/04 A3016 RMK A01 T00500035  RH  091%=      5-min Rain = 0
KST2 111409Z 01028KT 05/04 A3016 RMK A01 T00490035  RH  090%=      5-min Rain = 0
KST2 111410Z 00026G32KT 05/03 A3016 RMK A01 T00490034  RH  090%=      5-min Rain = 0
KST2 111411Z 01026G33KT 05/03 A3017 RMK A01 T00480034  RH  090%=      5-min Rain = 0
KST2 111412Z 36024KT 05/03 A3017 RMK A01 T00480034  RH  090%=      5-min Rain = 0
KST2 111413Z 00026G31KT 05/03 A3017 RMK A01 T00480033  RH  090%=      5-min Rain = 0
KST2 111414Z 00025G30KT 05/03 A3017 RMK A01 T00480033  RH  090%=      5-min Rain = 0
KST2 111415Z 00023G28KT 05/03 A3017 RMK A01 T00480033  RH  090%=      5-min Rain = 0
KST2 111416Z 00023KT 05/03 A3017 RMK A01 T00490034  RH  090%=      5-min Rain = 0
KST2 111417Z 00026G31KT 05/03 A3017 RMK A01 T00480033  RH  090%=      5-min Rain = 0
KST2 111418Z 36021KT 05/03 A3017 RMK A01 T00470032  RH  090%=      5-min Rain = 0
KST2 111419Z 35025G32KT 05/03 A3017 RMK A01 T00470033  RH  091%=      5-min Rain = 0
KST2 111420Z 35029G34KT 05/03 A3018 RMK A01 T00480034  RH  091%=      5-min Rain = 0
KST2 111421Z 35032KT 05/03 A3018 RMK A01 T00460032  RH  090%=      5-min Rain = 0
KST2 111422Z 35032KT 05/03 A3018 RMK A01 T00450030  RH  090%=      5-min Rain = 0
KST2 111423Z 35030KT 04/03 A3018 RMK A01 T00430029  RH  090%=      5-min Rain = 0
KST2 111424Z 35032G37KT 04/03 A3018 RMK A01 T00420029  RH  091%=      5-min Rain = 0
KST2 111425Z 36035KT 04/03 A3018 RMK A01 T00420029  RH  091%=      5-min Rain = 0
KST2 111426Z 00034KT 04/03 A3019 RMK A01 T00410026  RH  090%=      5-min Rain = 0
KST2 111427Z 35032G39KT 04/02 A3019 RMK A01 T00400024  RH  089%=      5-min Rain = 0
KST2 111428Z 35033KT 04/03 A3019 RMK A01 T00400025  RH  090%=      5-min Rain = 0
KST2 111429Z 35031G36KT 04/02 A3019 RMK A01 T00400024  RH  089%=      5-min Rain = 0
KST2 111430Z 36028G33KT 04/02 A3019 RMK A01 T00390024  RH  090%=      5-min Rain = 0
KST2 111431Z 35030KT 04/02 A3019 RMK A01 T00390024  RH  090%=      5-min Rain = 0
KST2 111432Z 35030KT 04/02 A3019 RMK A01 T00390024  RH  090%=      5-min Rain = 0
KST2 111433Z 36029KT 04/02 A3019 RMK A01 T00380023  RH  090%=      5-min Rain = 0
KST2 111434Z 35031G38KT 04/02 A3019 RMK A01 T00380022  RH  090%=      5-min Rain = 0
KST2 111435Z 35031G36KT 04/02 A302 RMK A01 T00370021  RH  090%=      5-min Rain = 0
KST2 111436Z 35031KT 04/02 A302 RMK A01 T00370022  RH  090%=      5-min Rain = 0
KST2 111437Z 35027KT 04/02 A302 RMK A01 T00370022  RH  090%=      5-min Rain = 0
KST2 111438Z 36029G35KT 04/02 A302 RMK A01 T00370023  RH  091%=      5-min Rain = 0
KST2 111439Z 00024KT 04/02 A3021 RMK A01 T00370022  RH  090%=      5-min Rain = 0
KST2 111440Z 00030KT 04/02 A3021 RMK A01 T00360022  RH  090%=      5-min Rain = 0
KST2 111441Z 00027G32KT 04/02 A3021 RMK A01 T00360021  RH  090%=      5-min Rain = 0
KST2 111442Z 01029KT 04/02 A3021 RMK A01 T00350020  RH  089%=      5-min Rain = 0
KST2 111443Z 00026KT 04/02 A3021 RMK A01 T00350019  RH  089%=      5-min Rain = 0
KST2 111444Z 36030G36KT 03/02 A3021 RMK A01 T00340019  RH  090%=      5-min Rain = 0
KST2 111445Z 00027KT 04/02 A3021 RMK A01 T00350019  RH  090%=      5-min Rain = 0
KST2 111446Z 00030KT 03/02 A3021 RMK A01 T00340018  RH  089%=      5-min Rain = 0
KST2 111447Z 00034G41KT 03/02 A3021 RMK A01 T00330016  RH  089%=      5-min Rain = 0
KST2 111448Z 00033G40KT 03/02 A3021 RMK A01 T00330015  RH  088%=      5-min Rain = 0
KST2 111449Z 00035KT 03/01 A3021 RMK A01 T00320013  RH  088%=      5-min Rain = 0
KST2 111450Z 01033KT 03/01 A3022 RMK A01 T00310012  RH  087%=      5-min Rain = 0
KST2 111451Z 36030G36KT 03/01 A3022 RMK A01 T00310013  RH  088%=      5-min Rain = 0
KST2 111452Z 01032G40KT 03/01 A3022 RMK A01 T00310013  RH  088%=      5-min Rain = 0
KST2 111453Z 00031G38KT 03/01 A3022 RMK A01 T00320013  RH  087%=      5-min Rain = 0
KST2 111454Z 00026G32KT 03/01 A3022 RMK A01 T00320013  RH  087%=      5-min Rain = 0
KST2 111455Z 01028G37KT 03/01 A3022 RMK A01 T00320013  RH  088%=      5-min Rain = 0
KST2 111456Z 01028G34KT 03/01 A3022 RMK A01 T00320014  RH  088%=      5-min Rain = 0
KST2 111457Z 01029G35KT 03/01 A3022 RMK A01 T00320014  RH  088%=      5-min Rain = 0
KST2 111458Z 01029G35KT 03/01 A3022 RMK A01 T00320014  RH  088%=      5-min Rain = 0
KST2 111459Z 01031KT 03/01 A3022 RMK A01 T00320014  RH  088%=      5-min Rain = 0
KST2 111500Z 00027G32KT 03/01 A3022 RMK A01 T00310013  RH  088%=      5-min Rain = 0
KST2 111501Z 00028G34KT 03/01 A3022 RMK A01 T00310014  RH  088%=      5-min Rain = 0
KST2 111502Z 00027KT 03/01 A3022 RMK A01 T00320014  RH  088%=      5-min Rain = 0
KST2 111503Z 36027KT 03/01 A3023 RMK A01 T00310013  RH  088%=      5-min Rain = 0
KST2 111504Z 01024G31KT 03/01 A3023 RMK A01 T00310013  RH  088%=      5-min Rain = 0
KST2 111505Z 36024G29KT 03/01 A3023 RMK A01 T00310013  RH  088%=      5-min Rain = 0
KST2 111506Z 00024G30KT 03/01 A3023 RMK A01 T00320014  RH  088%=      5-min Rain = 0
KST2 111507Z 00027G36KT 03/01 A3024 RMK A01 T00320014  RH  088%=      5-min Rain = 0
KST2 111508Z 36030KT 03/01 A3024 RMK A01 T00320013  RH  088%=      5-min Rain = 0
KST2 111509Z 00028G34KT 03/01 A3024 RMK A01 T00310013  RH  088%=      5-min Rain = 0
KST2 111510Z 35025G33KT 03/01 A3024 RMK A01 T00310014  RH  089%=      5-min Rain = 0
KST2 111511Z 36026KT 03/02 A3024 RMK A01 T00310016  RH  089%=      5-min Rain = 0
KST2 111512Z 00020KT 03/02 A3025 RMK A01 T00320016  RH  090%=      5-min Rain = 0
KST2 111513Z 36021KT 03/02 A3025 RMK A01 T00320017  RH  090%=      5-min Rain = 0
KST2 111514Z 00024KT 03/02 A3025 RMK A01 T00320016  RH  090%=      5-min Rain = 0
KST2 111515Z 00026G34KT 03/02 A3025 RMK A01 T00310015  RH  089%=      5-min Rain = 0
KST2 111516Z 00029KT 03/01 A3026 RMK A01 T00300014  RH  089%=      5-min Rain = 0
KST2 111517Z 36027KT 03/01 A3026 RMK A01 T00300013  RH  089%=      5-min Rain = 0
KST2 111518Z 36023G32KT 03/01 A3026 RMK A01 T00290013  RH  089%=      5-min Rain = 0
KST2 111519Z 36030KT 03/01 A3026 RMK A01 T00300014  RH  090%=      5-min Rain = 0
KST2 111520Z 36032G39KT 03/01 A3027 RMK A01 T00290012  RH  089%=      5-min Rain = 0
KST2 111521Z 00029G36KT 03/01 A3027 RMK A01 T00280010  RH  088%=      5-min Rain = 0
KST2 111522Z 00025G30KT 03/01 A3027 RMK A01 T00270009  RH  088%=      5-min Rain = 0
KST2 111523Z 00027G32KT 03/01 A3027 RMK A01 T00260008  RH  088%=      5-min Rain = 0
KST2 111524Z 01025KT 03/01 A3028 RMK A01 T00250007  RH  088%=      5-min Rain = 0
KST2 111525Z 01028KT 03/01 A3028 RMK A01 T00250006  RH  087%=      5-min Rain = 0
KST2 111526Z 36028G35KT 03/01 A3028 RMK A01 T00250005  RH  087%=      5-min Rain = 0
KST2 111527Z 36032G37KT 03/01 A3028 RMK A01 T00250005  RH  087%=      5-min Rain = 0
KST2 111528Z 35033G39KT 02/00 A3028 RMK A01 T00240004  RH  087%=      5-min Rain = 0
KST2 111529Z 36030G37KT 02/00 A3029 RMK A01 T00240004  RH  087%=      5-min Rain = 0
KST2 111530Z 36027G32KT 02/00 A3029 RMK A01 T00240004  RH  087%=      5-min Rain = 0
KST2 111531Z 00031KT 02/00 A3029 RMK A01 T00230003  RH  087%=      5-min Rain = 0
KST2 111532Z 00030KT 02/00 A3029 RMK A01 T00230001  RH  086%=      5-min Rain = 0
KST2 111533Z 00029G34KT 02/M00 A3029 RMK A01 T00221001  RH  085%=      5-min Rain = 0
KST2 111534Z 01028KT 02/M00 A3029 RMK A01 T00221001  RH  085%=      5-min Rain = 0
KST2 111535Z 01028KT 02/M00 A3029 RMK A01 T00211002  RH  085%=      5-min Rain = 0
KST2 111536Z 01029G34KT 02/M00 A3029 RMK A01 T00211003  RH  084%=      5-min Rain = 0
KST2 111537Z 01025G30KT 02/M00 A3029 RMK A01 T00211004  RH  084%=      5-min Rain = 0
KST2 111538Z 01025G30KT 02/M00 A3029 RMK A01 T00211003  RH  084%=      5-min Rain = 0
KST2 111539Z 01025G31KT 02/M00 A303 RMK A01 T00211003  RH  084%=      5-min Rain = 0
KST2 111540Z 01027KT 02/M00 A303 RMK A01 T00211003  RH  084%=      5-min Rain = 0
KST2 111541Z 01022G27KT 02/M00 A303 RMK A01 T00211003  RH  085%=      5-min Rain = 0
KST2 111542Z 00023KT 02/M00 A303 RMK A01 T00211002  RH  085%=      5-min Rain = 0
KST2 111543Z 00019KT 02/M00 A303 RMK A01 T00211002  RH  085%=      5-min Rain = 0
KST2 111544Z 00021KT 02/M00 A303 RMK A01 T00211001  RH  086%=      5-min Rain = 0
KST2 111545Z 00023KT 02/00 A303 RMK A01 T002100-0  RH  085%=      5-min Rain = 0
KST2 111546Z 36026G31KT 02/M00 A303 RMK A01 T00211001  RH  085%=      5-min Rain = 0
KST2 111547Z 35025KT 02/00 A303 RMK A01 T002100-0  RH  086%=      5-min Rain = 0
KST2 111548Z 35029G35KT 02/00 A303 RMK A01 T002100-0  RH  086%=      5-min Rain = 0
KST2 111549Z 35035KT 02/M00 A303 RMK A01 T00211001  RH  085%=      5-min Rain = 0
KST2 111550Z 00027G33KT 02/M00 A303 RMK A01 T00211003  RH  084%=      5-min Rain = 0
KST2 111551Z 00029G35KT 02/M00 A303 RMK A01 T00211003  RH  084%=      5-min Rain = 0
KST2 111552Z 00028G33KT 02/M00 A303 RMK A01 T00211004  RH  083%=      5-min Rain = 0
KST2 111553Z 01025KT 02/M01 A3031 RMK A01 T00201006  RH  083%=      5-min Rain = 0
KST2 111554Z 01027G34KT 02/M01 A3031 RMK A01 T00201005  RH  084%=      5-min Rain = 0
KST2 111555Z 01031G38KT 02/M01 A3031 RMK A01 T00201006  RH  083%=      5-min Rain = 0
KST2 111556Z 01028G34KT 02/M01 A3031 RMK A01 T00191007  RH  083%=      5-min Rain = 0
KST2 111557Z 01031G36KT 02/M01 A3031 RMK A01 T00191006  RH  083%=      5-min Rain = 0
KST2 111558Z 00031KT 02/M01 A3031 RMK A01 T00181007  RH  083%=      5-min Rain = 0
KST2 111559Z 00025KT 02/M01 A3031 RMK A01 T00181008  RH  083%=      5-min Rain = 0
KST2 111600Z 00031KT 02/M01 A3031 RMK A01 T00181007  RH  083%=      5-min Rain = 0
KST2 111601Z 36030G36KT 02/M01 A3031 RMK A01 T00181008  RH  083%=      5-min Rain = 0
KST2 111602Z 01026G31KT 02/M01 A3032 RMK A01 T00191008  RH  083%=      5-min Rain = 0
KST2 111603Z 00025G30KT 02/M01 A3032 RMK A01 T00191008  RH  082%=      5-min Rain = 0
KST2 111604Z 00028G37KT 02/M01 A3032 RMK A01 T00191010  RH  082%=      5-min Rain = 0
KST2 111605Z 00030KT 02/M01 A3032 RMK A01 T00181012  RH  081%=      5-min Rain = 0
KST2 111606Z 01029G34KT 02/M01 A3032 RMK A01 T00171013  RH  080%=      5-min Rain = 0
KST2 111607Z 01026G33KT 02/M01 A3032 RMK A01 T00171013  RH  080%=      5-min Rain = 0
KST2 111608Z 01030G35KT 02/M01 A3033 RMK A01 T00171013  RH  081%=      5-min Rain = 0
KST2 111609Z 01026G31KT 02/M01 A3033 RMK A01 T00161012  RH  081%=      5-min Rain = 0
KST2 111610Z 00022G27KT 02/M01 A3033 RMK A01 T00161012  RH  082%=      5-min Rain = 0
KST2 111611Z 00025KT 02/M01 A3033 RMK A01 T00161011  RH  082%=      5-min Rain = 0
KST2 111612Z 36026KT 02/M01 A3033 RMK A01 T00161011  RH  082%=      5-min Rain = 0
KST2 111613Z 01024G31KT 02/M01 A3033 RMK A01 T00161010  RH  083%=      5-min Rain = 0
KST2 111614Z 00026KT 02/M01 A3033 RMK A01 T00161009  RH  083%=      5-min Rain = 0
KST2 111615Z 00028KT 02/M01 A3033 RMK A01 T00161009  RH  083%=      5-min Rain = 0
KST2 111616Z 35025KT 02/M01 A3033 RMK A01 T00161008  RH  084%=      5-min Rain = 0
KST2 111617Z 36024KT 02/M01 A3034 RMK A01 T00171007  RH  084%=      5-min Rain = 0
KST2 111618Z 36025G34KT 02/M01 A3034 RMK A01 T00171007  RH  084%=      5-min Rain = 0
KST2 111619Z 36031KT 02/M01 A3034 RMK A01 T00171008  RH  084%=      5-min Rain = 0
KST2 111620Z 35031KT 02/M01 A3034 RMK A01 T00151010  RH  083%=      5-min Rain = 0
KST2 111621Z 36029G34KT 01/M01 A3034 RMK A01 T00141010  RH  084%=      5-min Rain = 0
KST2 111622Z 00030KT 01/M01 A3034 RMK A01 T00141011  RH  084%=      5-min Rain = 0
KST2 111623Z 36025G31KT 01/M01 A3034 RMK A01 T00131012  RH  084%=      5-min Rain = 0
KST2 111624Z 35026KT 01/M01 A3034 RMK A01 T00131011  RH  085%=      5-min Rain = 0
KST2 111625Z 35030G35KT 01/M01 A3034 RMK A01 T00131009  RH  085%=      5-min Rain = 0
KST2 111626Z 35029KT 01/M01 A3034 RMK A01 T00131010  RH  084%=      5-min Rain = 0
KST2 111627Z 36029KT 01/M01 A3034 RMK A01 T00131010  RH  085%=      5-min Rain = 0
KST2 111628Z 35028KT 01/M01 A3034 RMK A01 T00121011  RH  084%=      5-min Rain = 0
KST2 111629Z 35027G36KT 01/M01 A3034 RMK A01 T00121010  RH  085%=      5-min Rain = 0
KST2 111630Z 00029G35KT 01/M01 A3034 RMK A01 T00121010  RH  086%=      5-min Rain = 0
KST2 111631Z 36030KT 01/M01 A3034 RMK A01 T00121011  RH  085%=      5-min Rain = 0
KST2 111632Z 00028KT 01/M01 A3035 RMK A01 T00111013  RH  084%=      5-min Rain = 0
KST2 111633Z 35028G33KT 01/M01 A3035 RMK A01 T00101014  RH  084%=      5-min Rain = 0
KST2 111634Z 36028G35KT 01/M01 A3035 RMK A01 T00101013  RH  085%=      5-min Rain = 0
KST2 111635Z 36030KT 01/M02 A3035 RMK A01 T00101015  RH  084%=      5-min Rain = 0
KST2 111636Z 01028KT 01/M02 A3035 RMK A01 T00091016  RH  083%=      5-min Rain = 0
KST2 111637Z 36030KT 01/M02 A3035 RMK A01 T00081017  RH  083%=      5-min Rain = 0
KST2 111638Z 36030G35KT 01/M02 A3035 RMK A01 T00081017  RH  083%=      5-min Rain = 0
KST2 111639Z 00031KT 01/M02 A3035 RMK A01 T00081018  RH  083%=      5-min Rain = 0
KST2 111640Z 36029G36KT 01/M02 A3035 RMK A01 T00071019  RH  083%=      5-min Rain = 0
KST2 111641Z 35026G33KT 01/M02 A3035 RMK A01 T00071017  RH  084%=      5-min Rain = 0
KST2 111642Z 35030G35KT 01/M02 A3035 RMK A01 T00081017  RH  083%=      5-min Rain = 0
KST2 111643Z 35030KT 01/M02 A3035 RMK A01 T00081018  RH  083%=      5-min Rain = 0
KST2 111644Z 36030KT 01/M02 A3036 RMK A01 T00081018  RH  083%=      5-min Rain = 0
KST2 111645Z 36024G30KT 01/M02 A3036 RMK A01 T00081017  RH  083%=      5-min Rain = 0
KST2 111646Z 01024G29KT 01/M02 A3036 RMK A01 T00081016  RH  084%=      5-min Rain = 0
KST2 111647Z 00025G30KT 01/M02 A3036 RMK A01 T00081018  RH  083%=      5-min Rain = 0
KST2 111648Z 00028G36KT 01/M02 A3036 RMK A01 T00071019  RH  083%=      5-min Rain = 0
KST2 111649Z 01031G36KT 01/M02 A3036 RMK A01 T00071021  RH  082%=      5-min Rain = 0
KST2 111650Z 01030G35KT 01/M02 A3036 RMK A01 T00061023  RH  081%=      5-min Rain = 0
KST2 111651Z 01032KT 01/M02 A3036 RMK A01 T00061023  RH  081%=      5-min Rain = 0
KST2 111652Z 01025KT 01/M02 A3036 RMK A01 T00061023  RH  081%=      5-min Rain = 0
KST2 111653Z 01027G34KT 01/M02 A3037 RMK A01 T00061023  RH  081%=      5-min Rain = 0
KST2 111654Z 01028KT 01/M02 A3037 RMK A01 T00061023  RH  081%=      5-min Rain = 0
KST2 111655Z 01027G32KT 01/M02 A3037 RMK A01 T00061023  RH  081%=      5-min Rain = 0
KST2 111656Z 01025G30KT 01/M02 A3037 RMK A01 T00051023  RH  081%=      5-min Rain = 0
KST2 111657Z 00026G31KT 01/M02 A3037 RMK A01 T00051023  RH  081%=      5-min Rain = 0
KST2 111658Z 00024G29KT 01/M02 A3038 RMK A01 T00051023  RH  081%=      5-min Rain = 0
KST2 111659Z 01020G25KT 01/M02 A3038 RMK A01 T00051022  RH  082%=      5-min Rain = 0
KST2 111700Z 01025KT 01/M02 A3038 RMK A01 T00061020  RH  082%=      5-min Rain = 0
KST2 111701Z 01026KT 01/M02 A3038 RMK A01 T00071021  RH  082%=      5-min Rain = 0
KST2 111702Z 00025KT 01/M02 A3038 RMK A01 T00061021  RH  082%=      5-min Rain = 0
KST2 111703Z 00025G31KT 01/M02 A3038 RMK A01 T00061022  RH  082%=      5-min Rain = 0
KST2 111704Z 00023G29KT 01/M02 A3038 RMK A01 T00061022  RH  082%=      5-min Rain = 0
KST2 111705Z 36026G32KT 01/M02 A3038 RMK A01 T00061021  RH  082%=      5-min Rain = 0
KST2 111706Z 36026KT 01/M02 A3038 RMK A01 T00061022  RH  082%=      5-min Rain = 0
KST2 111707Z 36021G26KT 01/M02 A3038 RMK A01 T00061020  RH  082%=      5-min Rain = 0
KST2 111708Z 01026KT 01/M02 A3038 RMK A01 T00071018  RH  083%=      5-min Rain = 0
KST2 111709Z 36027KT 01/M02 A3038 RMK A01 T00071021  RH  082%=      5-min Rain = 0
KST2 111710Z 36022KT 01/M02 A3038 RMK A01 T00061021  RH  082%=      5-min Rain = 0
KST2 111711Z 00022G27KT 01/M02 A3038 RMK A01 T00071019  RH  083%=      5-min Rain = 0
KST2 111712Z 00026G34KT 01/M02 A3038 RMK A01 T00071019  RH  083%=      5-min Rain = 0
KST2 111713Z 00030KT 01/M02 A3038 RMK A01 T00061022  RH  082%=      5-min Rain = 0
KST2 111714Z 35030KT 00/M02 A3038 RMK A01 T00041024  RH  082%=      5-min Rain = 0
KST2 111715Z 00025G30KT 00/M02 A3038 RMK A01 T00041023  RH  082%=      5-min Rain = 0
KST2 111716Z 36024KT 00/M02 A3038 RMK A01 T00041023  RH  082%=      5-min Rain = 0
KST2 111717Z 36024G30KT 00/M02 A3038 RMK A01 T00041023  RH  082%=      5-min Rain = 0
KST2 111718Z 36031G39KT 00/M02 A3038 RMK A01 T00041023  RH  082%=      5-min Rain = 0
KST2 111719Z 00031G37KT 00/M03 A3038 RMK A01 T00021027  RH  081%=      5-min Rain = 0
KST2 111720Z 01030G36KT 00/M03 A3038 RMK A01 T00011028  RH  081%=      5-min Rain = 0
KST2 111721Z 00030KT 00/03 A3039 RMK A01 T00000-29  RH  081%=      5-min Rain = 0
KST2 111722Z 36031G37KT 00/03 A3039 RMK A01 T00000-29  RH  081%=      5-min Rain = 0
KST2 111723Z 01033KT 00/03 A3039 RMK A01 T00-00-30  RH  080%=      5-min Rain = 0
KST2 111724Z 00032KT M00/M03 A3038 RMK A01 T10011032  RH  080%=      5-min Rain = 0
KST2 111725Z 00029G35KT M00/M03 A3039 RMK A01 T10011031  RH  080%=      5-min Rain = 0
KST2 111726Z 01028KT 00/03 A3039 RMK A01 T00-00-30  RH  080%=      5-min Rain = 0
KST2 111727Z 00029G37KT 00/03 A3039 RMK A01 T00-00-31  RH  080%=      5-min Rain = 0
KST2 111728Z 36028G34KT 00/03 A3039 RMK A01 T00-00-31  RH  080%=      5-min Rain = 0
KST2 111729Z 00031G39KT 00/03 A3039 RMK A01 T00-00-31  RH  080%=      5-min Rain = 0
KST2 111730Z 00030KT M00/M03 A3039 RMK A01 T10011032  RH  079%=      5-min Rain = 0
KST2 111731Z 00027G32KT M00/M03 A3039 RMK A01 T10011031  RH  080%=      5-min Rain = 0
KST2 111732Z 01028G33KT 00/03 A3039 RMK A01 T00-00-30  RH  080%=      5-min Rain = 0
KST2 111733Z 01027KT M00/M03 A3039 RMK A01 T10011031  RH  080%=      5-min Rain = 0
KST2 111734Z 01026KT M00/M03 A3039 RMK A01 T10011031  RH  080%=      5-min Rain = 0
KST2 111735Z 01028KT M00/M03 A3039 RMK A01 T10011030  RH  080%=      5-min Rain = 0
KST2 111736Z 01031KT M00/M03 A3039 RMK A01 T10011030  RH  080%=      5-min Rain = 0
KST2 111737Z 01026KT M00/M03 A3039 RMK A01 T10011030  RH  081%=      5-min Rain = 0
KST2 111738Z 01023G28KT M00/M03 A304 RMK A01 T10021030  RH  081%=      5-min Rain = 0
KST2 111739Z 00022KT M00/M03 A304 RMK A01 T10011028  RH  082%=      5-min Rain = 0
KST2 111740Z 00024KT 00/03 A304 RMK A01 T00-00-27  RH  082%=      5-min Rain = 0
KST2 111741Z 01021KT 00/03 A304 RMK A01 T00-00-28  RH  082%=      5-min Rain = 0
KST2 111742Z 01020G27KT 00/03 A304 RMK A01 T00000-27  RH  082%=      5-min Rain = 0
KST2 111743Z 01023G29KT 00/M03 A304 RMK A01 T00011027  RH  082%=      5-min Rain = 0
KST2 111744Z 01026KT 00/M03 A304 RMK A01 T00011029  RH  080%=      5-min Rain = 0
KST2 111745Z 01028KT 00/03 A304 RMK A01 T00-00-31  RH  080%=      5-min Rain = 0
KST2 111746Z 00025KT M00/M03 A304 RMK A01 T10011032  RH  080%=      5-min Rain = 0
KST2 111747Z 01023G29KT M00/M03 A304 RMK A01 T10021030  RH  081%=      5-min Rain = 0
KST2 111748Z 01028KT M00/M03 A304 RMK A01 T10011029  RH  081%=      5-min Rain = 0
KST2 111749Z 01026KT M00/M03 A304 RMK A01 T10021029  RH  082%=      5-min Rain = 0
KST2 111750Z 01023G29KT M00/M03 A3041 RMK A01 T10021029  RH  082%=      5-min Rain = 0
KST2 111751Z 00022KT M00/M03 A3041 RMK A01 T10021028  RH  083%=      5-min Rain = 0
KST2 111752Z 00024KT M00/M03 A3041 RMK A01 T10021027  RH  083%=      5-min Rain = 0
KST2 111753Z 35021G30KT M00/M03 A3041 RMK A01 T10021026  RH  084%=      5-min Rain = 0
KST2 111754Z 36027G34KT M00/M03 A3041 RMK A01 T10021025  RH  085%=      5-min Rain = 0
KST2 111755Z 00031KT M00/M03 A3041 RMK A01 T10021027  RH  083%=      5-min Rain = 0
KST2 111756Z 00026G31KT M00/M03 A3041 RMK A01 T10031029  RH  083%=      5-min Rain = 0
KST2 111757Z 00024G30KT M00/M03 A3041 RMK A01 T10041029  RH  083%=      5-min Rain = 0
KST2 111758Z 36023G28KT M00/M03 A3041 RMK A01 T10041028  RH  084%=      5-min Rain = 0
KST2 111759Z 36026G32KT M00/M03 A3041 RMK A01 T10031027  RH  084%=      5-min Rain = 0
KST2 111800Z 35027KT M00/M03 A304 RMK A01 T10031027  RH  084%=      5-min Rain = 0
KST2 111801Z 36031KT M00/M03 A304 RMK A01 T10031027  RH  084%=      5-min Rain = 0
KST2 111802Z 36031KT M00/M03 A304 RMK A01 T10041029  RH  083%=      5-min Rain = 0
KST2 111803Z 35032KT M00/M03 A304 RMK A01 T10041029  RH  084%=      5-min Rain = 0
KST2 111804Z 36030KT M01/M03 A3041 RMK A01 T10051029  RH  084%=      5-min Rain = 0
KST2 111805Z 00029KT M01/M03 A3041 RMK A01 T10051029  RH  084%=      5-min Rain = 0
KST2 111806Z 00029KT M01/M03 A3041 RMK A01 T10051031  RH  083%=      5-min Rain = 0
KST2 111807Z 00030KT M01/M03 A3041 RMK A01 T10061031  RH  083%=      5-min Rain = 0
KST2 111808Z 01028G33KT M01/M03 A304 RMK A01 T10061033  RH  082%=      5-min Rain = 0
KST2 111809Z 00027KT M01/M03 A304 RMK A01 T10061033  RH  082%=      5-min Rain = 0
KST2 111810Z 01027G33KT M01/M03 A304 RMK A01 T10061032  RH  082%=      5-min Rain = 0
KST2 111811Z 01024G31KT M01/M03 A304 RMK A01 T10051032  RH  082%=      5-min Rain = 0
KST2 111812Z 00026G31KT M01/M03 A304 RMK A01 T10051031  RH  083%=      5-min Rain = 0
KST2 111813Z 00028KT M01/M03 A304 RMK A01 T10061032  RH  082%=      5-min Rain = 0
KST2 111814Z 00028KT M01/M03 A304 RMK A01 T10061032  RH  082%=      5-min Rain = 0
KST2 111815Z 01028KT M01/M03 A3041 RMK A01 T10061032  RH  083%=      5-min Rain = 0
KST2 111816Z 01021G27KT M01/M03 A3041 RMK A01 T10061031  RH  084%=      5-min Rain = 0
KST2 111817Z 00023KT M01/M03 A3041 RMK A01 T10061030  RH  084%=      5-min Rain = 0
KST2 111818Z 01020G27KT M01/M03 A3041 RMK A01 T10061029  RH  085%=      5-min Rain = 0
KST2 111819Z 01021G29KT M01/M03 A3041 RMK A01 T10061028  RH  085%=      5-min Rain = 0
KST2 111820Z 01025G31KT M01/M03 A3041 RMK A01 T10061029  RH  085%=      5-min Rain = 0
KST2 111821Z 01027KT M01/M03 A3041 RMK A01 T10071030  RH  084%=      5-min Rain = 0
KST2 111822Z 01025KT M01/M03 A3041 RMK A01 T10071030  RH  084%=      5-min Rain = 0
KST2 111823Z 01025KT M01/M03 A3041 RMK A01 T10071030  RH  085%=      5-min Rain = 0
KST2 111824Z 01023G28KT M01/M03 A3041 RMK A01 T10071029  RH  085%=      5-min Rain = 0
KST2 111825Z 01024KT M01/M03 A3041 RMK A01 T10071029  RH  085%=      5-min Rain = 0
KST2 111826Z 01024G29KT M01/M03 A304 RMK A01 T10081030  RH  085%=      5-min Rain = 0
KST2 111827Z 01025G31KT M01/M03 A3041 RMK A01 T10081029  RH  085%=      5-min Rain = 0
KST2 111828Z 01026G33KT M01/M03 A3041 RMK A01 T10081030  RH  085%=      5-min Rain = 0
KST2 111829Z 00028KT M01/M03 A3041 RMK A01 T10081030  RH  085%=      5-min Rain = 0
KST2 111830Z 02028G33KT M01/M03 A304 RMK A01 T10091031  RH  085%=      5-min Rain = 0
KST2 111831Z 01026G31KT M01/M03 A304 RMK A01 T10091031  RH  085%=      5-min Rain = 0
KST2 111832Z 01029KT M01/M03 A304 RMK A01 T10081030  RH  085%=      5-min Rain = 0
KST2 111833Z 01025KT M01/M03 A304 RMK A01 T10081030  RH  085%=      5-min Rain = 0
KST2 111834Z 01025KT M01/M03 A304 RMK A01 T10091029  RH  086%=      5-min Rain = 0
KST2 111835Z 01022KT M01/M03 A304 RMK A01 T10081028  RH  086%=      5-min Rain = 0
KST2 111836Z 01026KT M01/M03 A304 RMK A01 T10081027  RH  087%=      5-min Rain = 0
KST2 111837Z 01025G30KT M01/M03 A304 RMK A01 T10081028  RH  086%=      5-min Rain = 0
KST2 111838Z 01024KT M01/M03 A3041 RMK A01 T10081028  RH  086%=      5-min Rain = 0
KST2 111839Z 02024KT M01/M03 A3041 RMK A01 T10081028  RH  086%=      5-min Rain = 0
KST2 111840Z 01027G32KT M01/M03 A3041 RMK A01 T10081028  RH  087%=      5-min Rain = 0
KST2 111841Z 01027G33KT M01/M03 A3041 RMK A01 T10081029  RH  086%=      5-min Rain = 0
KST2 111842Z 01024G29KT M01/M03 A3041 RMK A01 T10091029  RH  086%=      5-min Rain = 0
KST2 111843Z 01026G33KT M01/M03 A3041 RMK A01 T10081028  RH  087%=      5-min Rain = 0
KST2 111844Z 01028KT M01/M03 A3041 RMK A01 T10081028  RH  086%=      5-min Rain = 0
KST2 111845Z 02027G32KT M01/M03 A3041 RMK A01 T10081029  RH  086%=      5-min Rain = 0
KST2 111846Z 01023G31KT M01/M03 A3041 RMK A01 T10081028  RH  086%=      5-min Rain = 0
KST2 111847Z 02027G32KT M01/M03 A3041 RMK A01 T10091027  RH  087%=      5-min Rain = 0
KST2 111848Z 00026G33KT M01/M03 A3041 RMK A01 T10081027  RH  087%=      5-min Rain = 0
KST2 111849Z 00026KT M01/M03 A3041 RMK A01 T10081027  RH  087%=      5-min Rain = 0
KST2 111850Z 00023KT M01/M03 A3041 RMK A01 T10081027  RH  087%=      5-min Rain = 0
KST2 111851Z 01028G33KT M01/M03 A3041 RMK A01 T10071025  RH  087%=      5-min Rain = 0
KST2 111852Z 01026G31KT M01/M03 A3041 RMK A01 T10071027  RH  086%=      5-min Rain = 0
KST2 111853Z 00026KT M01/M03 A3041 RMK A01 T10081028  RH  087%=      5-min Rain = 0
KST2 111854Z 01024G30KT M01/M03 A3041 RMK A01 T10081027  RH  087%=      5-min Rain = 0
KST2 111855Z 01026KT M01/M03 A3041 RMK A01 T10081027  RH  087%=      5-min Rain = 0
KST2 111856Z 01023G29KT M01/M03 A3041 RMK A01 T10081027  RH  087%=      5-min Rain = 0
KST2 111857Z 01023KT M01/M03 A3041 RMK A01 T10091027  RH  087%=      5-min Rain = 0
KST2 111858Z 01025KT M01/M03 A3042 RMK A01 T10091027  RH  087%=      5-min Rain = 0
KST2 111859Z 01023G29KT M01/M03 A3042 RMK A01 T10081027  RH  087%=      5-min Rain = 0
KST2 111900Z 01023KT M01/M03 A3042 RMK A01 T10081027  RH  087%=      5-min Rain = 0
KST2 111901Z 01023KT M01/M03 A3041 RMK A01 T10081027  RH  087%=      5-min Rain = 0
KST2 111902Z 01023G28KT M01/M03 A3041 RMK A01 T10071026  RH  087%=      5-min Rain = 0
KST2 111903Z 00021KT M01/M03 A3041 RMK A01 T10071025  RH  088%=      5-min Rain = 0
KST2 111904Z 00022G30KT M01/M02 A3041 RMK A01 T10071024  RH  088%=      5-min Rain = 0
KST2 111905Z 35028KT M01/M02 A3041 RMK A01 T10071023  RH  089%=      5-min Rain = 0
KST2 111906Z 36025G30KT M01/M02 A3041 RMK A01 T10081023  RH  089%=      5-min Rain = 0
KST2 111907Z 36026KT M01/M02 A3041 RMK A01 T10081023  RH  090%=      5-min Rain = 0
KST2 111908Z 00024KT M01/M02 A3041 RMK A01 T10091024  RH  090%=      5-min Rain = 0
KST2 111909Z 01021G26KT M01/M02 A3041 RMK A01 T10101024  RH  090%=      5-min Rain = 0
KST2 111910Z 01019KT M01/M02 A3041 RMK A01 T10101024  RH  090%=      5-min Rain = 0
KST2 111911Z 36023G31KT M01/M02 A3041 RMK A01 T10101023  RH  091%=      5-min Rain = 0
KST2 111912Z 00024KT M01/M02 A3041 RMK A01 T10101024  RH  090%=      5-min Rain = 0
KST2 111913Z 01021KT M01/M03 A3041 RMK A01 T10101025  RH  090%=      5-min Rain = 0
KST2 111914Z 01021G26KT M01/M02 A3041 RMK A01 T10111024  RH  091%=      5-min Rain = 0
KST2 111915Z 00023KT M01/M03 A3041 RMK A01 T10111025  RH  090%=      5-min Rain = 0
KST2 111916Z 00023KT M01/M03 A3041 RMK A01 T10111026  RH  090%=      5-min Rain = 0
KST2 111917Z 01021G26KT M01/M03 A3041 RMK A01 T10121027  RH  089%=      5-min Rain = 0
KST2 111918Z 01021KT M01/M03 A3041 RMK A01 T10121028  RH  089%=      5-min Rain = 0
KST2 111919Z 00022KT M01/M03 A3041 RMK A01 T10121028  RH  089%=      5-min Rain = 0
KST2 111920Z 01019KT M01/M03 A3041 RMK A01 T10121028  RH  088%=      5-min Rain = 0
KST2 111921Z 01022KT M01/M03 A3041 RMK A01 T10111028  RH  088%=      5-min Rain = 0
KST2 111922Z 02020KT M01/M03 A3041 RMK A01 T10111029  RH  088%=      5-min Rain = 0
KST2 111923Z 01023KT M01/M03 A3041 RMK A01 T10111028  RH  088%=      5-min Rain = 0
KST2 111924Z 01020KT M01/M03 A3041 RMK A01 T10111028  RH  088%=      5-min Rain = 0
KST2 111925Z 01019KT M01/M03 A3041 RMK A01 T10111027  RH  089%=      5-min Rain = 0
KST2 111926Z 01017KT M01/M03 A3041 RMK A01 T10111027  RH  089%=      5-min Rain = 0
KST2 111927Z 01017KT M01/M03 A3041 RMK A01 T10101026  RH  089%=      5-min Rain = 0
KST2 111928Z 00018KT M01/M03 A3041 RMK A01 T10101026  RH  089%=      5-min Rain = 0
KST2 111929Z 00019KT M01/M03 A3041 RMK A01 T10101026  RH  089%=      5-min Rain = 0
KST2 111930Z 36018G23KT M01/M03 A3041 RMK A01 T10111026  RH  090%=      5-min Rain = 0
KST2 111931Z 36021KT M01/M03 A3041 RMK A01 T10111026  RH  090%=      5-min Rain = 0
KST2 111932Z 00023KT M01/M03 A3041 RMK A01 T10121028  RH  089%=      5-min Rain = 0
KST2 111933Z 36022KT M01/M03 A3041 RMK A01 T10131030  RH  088%=      5-min Rain = 0
KST2 111934Z 35021KT M01/M03 A3041 RMK A01 T10141030  RH  089%=      5-min Rain = 0
KST2 111935Z 36020KT M01/M03 A3041 RMK A01 T10141029  RH  089%=      5-min Rain = 0
KST2 111936Z 35018KT M01/M03 A3041 RMK A01 T10131028  RH  089%=      5-min Rain = 0
KST2 111937Z 36019KT M01/M03 A3041 RMK A01 T10131028  RH  090%=      5-min Rain = 0
KST2 111938Z 01015KT M01/M03 A3041 RMK A01 T10141029  RH  090%=      5-min Rain = 0
KST2 111939Z 00017KT M01/M03 A3041 RMK A01 T10141029  RH  089%=      5-min Rain = 0
KST2 111940Z 01022KT M01/M03 A3041 RMK A01 T10141030  RH  089%=      5-min Rain = 0
KST2 111941Z 01018G24KT M02/M03 A3041 RMK A01 T10151033  RH  088%=      5-min Rain = 0
KST2 111942Z 01019KT M02/M03 A3042 RMK A01 T10151033  RH  088%=      5-min Rain = 0
KST2 111943Z 01020KT M02/M03 A3041 RMK A01 T10151034  RH  087%=      5-min Rain = 0
KST2 111944Z 00020KT M02/M04 A3042 RMK A01 T10151035  RH  086%=      5-min Rain = 0
KST2 111945Z 01019KT M02/M04 A3042 RMK A01 T10151035  RH  086%=      5-min Rain = 0
KST2 111946Z 01016KT M02/M04 A3042 RMK A01 T10151035  RH  086%=      5-min Rain = 0
KST2 111947Z 01017KT M01/M03 A3042 RMK A01 T10141034  RH  087%=      5-min Rain = 0
KST2 111948Z 01016KT M01/M03 A3041 RMK A01 T10141034  RH  086%=      5-min Rain = 0
KST2 111949Z 00016G24KT M01/M03 A3041 RMK A01 T10131033  RH  087%=      5-min Rain = 0
KST2 111950Z 01018KT M01/M03 A3041 RMK A01 T10131034  RH  086%=      5-min Rain = 0
KST2 111951Z 01017G22KT M01/M04 A3041 RMK A01 T10131035  RH  085%=      5-min Rain = 0
KST2 111952Z 00020G26KT M01/M04 A3041 RMK A01 T10141035  RH  085%=      5-min Rain = 0
KST2 111953Z 01019KT M01/M04 A3041 RMK A01 T10141037  RH  084%=      5-min Rain = 0
KST2 111954Z 01017KT M01/M04 A3041 RMK A01 T10141037  RH  084%=      5-min Rain = 0
KST2 111955Z 01019KT M01/M04 A3041 RMK A01 T10141036  RH  085%=      5-min Rain = 0
KST2 111956Z 01018G24KT M01/M04 A3041 RMK A01 T10141036  RH  085%=      5-min Rain = 0
KST2 111957Z 01020KT M01/M04 A3041 RMK A01 T10131037  RH  084%=      5-min Rain = 0
KST2 111958Z 01017KT M01/M04 A3042 RMK A01 T10131037  RH  084%=      5-min Rain = 0
KST2 111959Z 00019G24KT M01/M04 A3041 RMK A01 T10131037  RH  084%=      5-min Rain = 0
KST2 112000Z 01020KT M01/M04 A3041 RMK A01 T10131037  RH  084%=      5-min Rain = 0
KST2 112001Z 00019G25KT M01/M04 A3041 RMK A01 T10131038  RH  083%=      5-min Rain = 0
KST2 112002Z 01022G27KT M01/M04 A3041 RMK A01 T10131038  RH  083%=      5-min Rain = 0
KST2 112003Z 00020KT M01/M04 A3041 RMK A01 T10131038  RH  083%=      5-min Rain = 0
KST2 112004Z 01022KT M01/M04 A3042 RMK A01 T10131038  RH  083%=      5-min Rain = 0
KST2 112005Z 01021KT M01/M04 A3042 RMK A01 T10131038  RH  083%=      5-min Rain = 0
KST2 112006Z 01020KT M01/M04 A3042 RMK A01 T10131037  RH  084%=      5-min Rain = 0
KST2 112007Z 01020KT M01/M04 A3042 RMK A01 T10131036  RH  085%=      5-min Rain = 0
KST2 112008Z 01021KT M01/M04 A3042 RMK A01 T10131035  RH  085%=      5-min Rain = 0
KST2 112009Z 01017KT M01/M04 A3042 RMK A01 T10131035  RH  085%=      5-min Rain = 0
KST2 112010Z 00018KT M01/M03 A3042 RMK A01 T10131034  RH  086%=      5-min Rain = 0
KST2 112011Z 00018KT M01/M03 A3042 RMK A01 T10131034  RH  086%=      5-min Rain = 0
KST2 112012Z 00016KT M01/M03 A3042 RMK A01 T10141034  RH  086%=      5-min Rain = 0
KST2 112013Z 36020KT M01/M03 A3042 RMK A01 T10141034  RH  087%=      5-min Rain = 0
KST2 112014Z 36019KT M02/M04 A3042 RMK A01 T10151035  RH  086%=      5-min Rain = 0
KST2 112015Z 00016KT M02/M04 A3041 RMK A01 T10151035  RH  087%=      5-min Rain = 0
KST2 112016Z 01015KT M02/M03 A3042 RMK A01 T10151034  RH  087%=      5-min Rain = 0
KST2 112017Z 00018G23KT M02/M03 A3042 RMK A01 T10151034  RH  087%=      5-min Rain = 0
KST2 112018Z 00019KT M02/M03 A3042 RMK A01 T10151034  RH  087%=      5-min Rain = 0
KST2 112019Z 36019KT M02/M04 A3042 RMK A01 T10161036  RH  086%=      5-min Rain = 0
KST2 112020Z 36020G25KT M02/M04 A3042 RMK A01 T10161036  RH  086%=      5-min Rain = 0
KST2 112021Z 35020KT M02/M04 A3043 RMK A01 T10161035  RH  087%=      5-min Rain = 0
KST2 112022Z 36021KT M02/M03 A3043 RMK A01 T10161034  RH  087%=      5-min Rain = 0
KST2 112023Z 35018KT M02/M04 A3043 RMK A01 T10161035  RH  087%=      5-min Rain = 0
KST2 112024Z 35020KT M02/M03 A3043 RMK A01 T10161033  RH  088%=      5-min Rain = 0
KST2 112025Z 35021KT M02/M04 A3043 RMK A01 T10161035  RH  087%=      5-min Rain = 0
KST2 112026Z 35020KT M02/M04 A3043 RMK A01 T10171035  RH  087%=      5-min Rain = 0
KST2 112027Z 35020KT M02/M04 A3043 RMK A01 T10171035  RH  088%=      5-min Rain = 0
KST2 112028Z 35019KT M02/M03 A3043 RMK A01 T10171034  RH  088%=      5-min Rain = 0
KST2 112029Z 36019KT M02/M03 A3043 RMK A01 T10171034  RH  088%=      5-min Rain = 0
KST2 112030Z 00018KT M02/M03 A3043 RMK A01 T10161034  RH  088%=      5-min Rain = 0
KST2 112031Z 36020KT M02/M04 A3043 RMK A01 T10161035  RH  087%=      5-min Rain = 0
KST2 112032Z 36019KT M02/M04 A3043 RMK A01 T10171037  RH  087%=      5-min Rain = 0
KST2 112033Z 01021KT M02/M04 A3044 RMK A01 T10171037  RH  086%=      5-min Rain = 0
KST2 112034Z 00020KT M02/M04 A3044 RMK A01 T10181039  RH  085%=      5-min Rain = 0
KST2 112035Z 00018G23KT M02/M04 A3044 RMK A01 T10181040  RH  085%=      5-min Rain = 0
KST2 112036Z 00020KT M02/M04 A3044 RMK A01 T10191040  RH  085%=      5-min Rain = 0
KST2 112037Z 00019KT M02/M04 A3044 RMK A01 T10181041  RH  084%=      5-min Rain = 0
KST2 112038Z 01020KT M02/M04 A3044 RMK A01 T10191042  RH  084%=      5-min Rain = 0
KST2 112039Z 36022KT M02/M04 A3044 RMK A01 T10191042  RH  084%=      5-min Rain = 0
KST2 112040Z 36020KT M02/M04 A3044 RMK A01 T10181042  RH  084%=      5-min Rain = 0
KST2 112041Z 00020KT M02/M04 A3044 RMK A01 T10181042  RH  084%=      5-min Rain = 0
KST2 112042Z 00016KT M02/M04 A3044 RMK A01 T10171042  RH  083%=      5-min Rain = 0
KST2 112043Z 01016KT M02/M04 A3044 RMK A01 T10171041  RH  084%=      5-min Rain = 0
KST2 112044Z 01019KT M02/M04 A3044 RMK A01 T10171042  RH  083%=      5-min Rain = 0
KST2 112045Z 00018G23KT M02/M04 A3044 RMK A01 T10171044  RH  082%=      5-min Rain = 0
KST2 112046Z 01018G26KT M02/M04 A3044 RMK A01 T10171044  RH  082%=      5-min Rain = 0
KST2 112047Z 35019KT M02/M04 A3044 RMK A01 T10171044  RH  082%=      5-min Rain = 0
KST2 112048Z 36019KT M02/M04 A3044 RMK A01 T10171044  RH  082%=      5-min Rain = 0
KST2 112049Z 36019KT M02/M04 A3044 RMK A01 T10161044  RH  082%=      5-min Rain = 0
KST2 112050Z 00017KT M02/M04 A3044 RMK A01 T10161044  RH  081%=      5-min Rain = 0
KST2 112051Z 36017KT M02/M04 A3044 RMK A01 T10161043  RH  081%=      5-min Rain = 0
KST2 112052Z 01016KT M02/M04 A3044 RMK A01 T10161043  RH  082%=      5-min Rain = 0
KST2 112053Z 00015G20KT M02/M04 A3045 RMK A01 T10151043  RH  082%=      5-min Rain = 0
KST2 112054Z 00017KT M02/M04 A3044 RMK A01 T10151043  RH  081%=      5-min Rain = 0
KST2 112055Z 36018KT M02/M04 A3045 RMK A01 T10151043  RH  081%=      5-min Rain = 0
KST2 112056Z 36018KT M02/M04 A3045 RMK A01 T10151043  RH  081%=      5-min Rain = 0
KST2 112057Z 36018KT M02/M04 A3045 RMK A01 T10151043  RH  081%=      5-min Rain = 0
KST2 112058Z 01015G20KT M02/M05 A3045 RMK A01 T10151045  RH  080%=      5-min Rain = 0
KST2 112059Z 00016KT M02/M04 A3045 RMK A01 T10151044  RH  081%=      5-min Rain = 0
KST2 112100Z 36019KT M02/M05 A3045 RMK A01 T10151045  RH  080%=      5-min Rain = 0
KST2 112101Z 00020KT M02/M05 A3045 RMK A01 T10151045  RH  080%=      5-min Rain = 0
KST2 112102Z 36018KT M01/M05 A3045 RMK A01 T10141046  RH  079%=      5-min Rain = 0
KST2 112103Z 36019KT M02/M05 A3045 RMK A01 T10151047  RH  079%=      5-min Rain = 0
KST2 112104Z 36015KT M01/M05 A3045 RMK A01 T10141046  RH  079%=      5-min Rain = 0
KST2 112105Z 00015KT M01/M05 A3045 RMK A01 T10141045  RH  080%=      5-min Rain = 0
KST2 112106Z 36018G24KT M01/M05 A3045 RMK A01 T10131045  RH  079%=      5-min Rain = 0
KST2 112107Z 36021KT M01/M05 A3045 RMK A01 T10131045  RH  079%=      5-min Rain = 0
KST2 112108Z 36020KT M01/M05 A3045 RMK A01 T10141046  RH  079%=      5-min Rain = 0
KST2 112109Z 36021KT M01/M05 A3045 RMK A01 T10131046  RH  078%=      5-min Rain = 0
KST2 112110Z 36020KT M01/M05 A3045 RMK A01 T10141046  RH  078%=      5-min Rain = 0
KST2 112111Z 36019KT M01/M05 A3045 RMK A01 T10141047  RH  078%=      5-min Rain = 0
KST2 112112Z 00018KT M01/M05 A3045 RMK A01 T10141047  RH  078%=      5-min Rain = 0
KST2 112113Z 00019KT M01/M05 A3045 RMK A01 T10141046  RH  078%=      5-min Rain = 0
KST2 112114Z 00017KT M01/M05 A3045 RMK A01 T10141047  RH  078%=      5-min Rain = 0
KST2 112115Z 36016KT M01/M05 A3046 RMK A01 T10141047  RH  078%=      5-min Rain = 0
KST2 112116Z 36020KT M01/M05 A3046 RMK A01 T10131046  RH  078%=      5-min Rain = 0
KST2 112117Z 36020KT M01/M05 A3046 RMK A01 T10131046  RH  078%=      5-min Rain = 0
KST2 112118Z 36019KT M01/M05 A3046 RMK A01 T10131047  RH  078%=      5-min Rain = 0
KST2 112119Z 36019KT M01/M05 A3046 RMK A01 T10131046  RH  078%=      5-min Rain = 0
KST2 112120Z 36018KT M01/M05 A3046 RMK A01 T10131046  RH  078%=      5-min Rain = 0
KST2 112121Z 00018KT M01/M05 A3046 RMK A01 T10131046  RH  078%=      5-min Rain = 0
KST2 112122Z 35016KT M01/M05 A3046 RMK A01 T10131047  RH  078%=      5-min Rain = 0
KST2 112123Z 35020KT M01/M05 A3047 RMK A01 T10131046  RH  078%=      5-min Rain = 0
KST2 112124Z 36023KT M01/M05 A3047 RMK A01 T10121046  RH  077%=      5-min Rain = 0
KST2 112125Z 36020KT M01/M05 A3047 RMK A01 T10121049  RH  076%=      5-min Rain = 0
KST2 112126Z 36021KT M01/M05 A3047 RMK A01 T10131049  RH  076%=      5-min Rain = 0
KST2 112127Z 36023KT M01/M05 A3047 RMK A01 T10121049  RH  076%=      5-min Rain = 0
KST2 112128Z 36022KT M01/M05 A3047 RMK A01 T10131050  RH  076%=      5-min Rain = 0
KST2 112129Z 36022KT M01/M05 A3047 RMK A01 T10121049  RH  076%=      5-min Rain = 0
KST2 112130Z 00019KT M01/M05 A3047 RMK A01 T10131050  RH  076%=      5-min Rain = 0
KST2 112131Z 36021G26KT M01/M05 A3047 RMK A01 T10121049  RH  076%=      5-min Rain = 0
KST2 112132Z 36020KT M01/M05 A3047 RMK A01 T10121050  RH  076%=      5-min Rain = 0
KST2 112133Z 00017KT M01/M05 A3047 RMK A01 T10121049  RH  076%=      5-min Rain = 0
KST2 112134Z 36018KT M01/M05 A3047 RMK A01 T10121049  RH  076%=      5-min Rain = 0
KST2 112135Z 00016G21KT M01/M05 A3047 RMK A01 T10121049  RH  076%=      5-min Rain = 0
KST2 112136Z 01016KT M01/M05 A3047 RMK A01 T10121049  RH  076%=      5-min Rain = 0
KST2 112137Z 36016KT M01/M05 A3047 RMK A01 T10121049  RH  076%=      5-min Rain = 0
KST2 112138Z 00018G23KT M01/M05 A3047 RMK A01 T10111048  RH  076%=      5-min Rain = 0
KST2 112139Z 00023KT M01/M05 A3046 RMK A01 T10111050  RH  075%=      5-min Rain = 0
KST2 112140Z 01020KT M01/M05 A3046 RMK A01 T10121051  RH  074%=      5-min Rain = 0
KST2 112141Z 01023KT M01/M05 A3046 RMK A01 T10121052  RH  074%=      5-min Rain = 0
KST2 112142Z 00017KT M01/M05 A3046 RMK A01 T10121053  RH  074%=      5-min Rain = 0
KST2 112143Z 01019G24KT M01/M05 A3046 RMK A01 T10131052  RH  075%=      5-min Rain = 0
KST2 112144Z 00020KT M01/M05 A3046 RMK A01 T10121053  RH  074%=      5-min Rain = 0
KST2 112145Z 00019KT M01/M05 A3047 RMK A01 T10121054  RH  073%=      5-min Rain = 0
KST2 112146Z 00020G25KT M01/M05 A3047 RMK A01 T10121053  RH  074%=      5-min Rain = 0
KST2 112147Z 00024G31KT M01/M05 A3047 RMK A01 T10111053  RH  073%=      5-min Rain = 0
KST2 112148Z 01023KT M01/M06 A3047 RMK A01 T10111055  RH  072%=      5-min Rain = 0
KST2 112149Z 01025G30KT M01/M06 A3047 RMK A01 T10111056  RH  072%=      5-min Rain = 0
KST2 112150Z 01025KT M01/M06 A3047 RMK A01 T10121057  RH  071%=      5-min Rain = 0
KST2 112151Z 00022KT M01/M06 A3047 RMK A01 T10121057  RH  071%=      5-min Rain = 0
KST2 112152Z 36018KT M01/M06 A3048 RMK A01 T10121056  RH  072%=      5-min Rain = 0
KST2 112153Z 36022G27KT M01/M06 A3048 RMK A01 T10111055  RH  072%=      5-min Rain = 0
KST2 112154Z 36024KT M01/M05 A3048 RMK A01 T10111054  RH  072%=      5-min Rain = 0
KST2 112155Z 36023KT M01/M06 A3048 RMK A01 T10111056  RH  071%=      5-min Rain = 0
KST2 112156Z 36022KT M01/M06 A3048 RMK A01 T10111055  RH  072%=      5-min Rain = 0
KST2 112157Z 36023KT M01/M06 A3048 RMK A01 T10111055  RH  072%=      5-min Rain = 0
KST2 112158Z 35023G28KT M01/M06 A3048 RMK A01 T10111055  RH  072%=      5-min Rain = 0
KST2 112159Z 36025KT M01/M05 A3048 RMK A01 T10101054  RH  072%=      5-min Rain = 0
KST2 112200Z 36023KT M01/M06 A3048 RMK A01 T10111056  RH  071%=      5-min Rain = 0
KST2 112201Z 01019G24KT M01/M06 A3048 RMK A01 T10111056  RH  071%=      5-min Rain = 0
KST2 112202Z 01020KT M01/M06 A3048 RMK A01 T10101056  RH  071%=      5-min Rain = 0
KST2 112203Z 01018G24KT M01/M06 A3048 RMK A01 T10101056  RH  071%=      5-min Rain = 0
KST2 112204Z 01016KT M01/M06 A3048 RMK A01 T10101056  RH  071%=      5-min Rain = 0
KST2 112205Z 01025KT M01/M06 A3049 RMK A01 T10101056  RH  071%=      5-min Rain = 0
KST2 112206Z 01023KT M01/M06 A3049 RMK A01 T10101058  RH  070%=      5-min Rain = 0
KST2 112207Z 01022KT M01/M06 A3049 RMK A01 T10101058  RH  070%=      5-min Rain = 0
KST2 112208Z 01021KT M01/M06 A3049 RMK A01 T10101058  RH  070%=      5-min Rain = 0
KST2 112209Z 00020G25KT M01/M06 A3049 RMK A01 T10101058  RH  070%=      5-min Rain = 0
KST2 112210Z 01017KT M01/M06 A3049 RMK A01 T10091057  RH  070%=      5-min Rain = 0
KST2 112211Z 01020G26KT M01/M06 A3049 RMK A01 T10091056  RH  071%=      5-min Rain = 0
KST2 112212Z 00020KT M01/M06 A3049 RMK A01 T10091057  RH  070%=      5-min Rain = 0
KST2 112213Z 01024G29KT M01/M06 A3049 RMK A01 T10091058  RH  069%=      5-min Rain = 0
KST2 112214Z 00021G26KT M01/M06 A3049 RMK A01 T10091060  RH  068%=      5-min Rain = 0
KST2 112215Z 01020KT M01/M06 A3049 RMK A01 T10091060  RH  068%=      5-min Rain = 0
KST2 112216Z 00020KT M01/M06 A3049 RMK A01 T10081059  RH  069%=      5-min Rain = 0
KST2 112217Z 36021KT M01/M06 A3049 RMK A01 T10081059  RH  069%=      5-min Rain = 0
KST2 112218Z 00020KT M01/M06 A3049 RMK A01 T10081060  RH  068%=      5-min Rain = 0
KST2 112219Z 01018KT M01/M06 A3049 RMK A01 T10081059  RH  068%=      5-min Rain = 0
KST2 112220Z 01018KT M01/M06 A3049 RMK A01 T10081058  RH  069%=      5-min Rain = 0
KST2 112221Z 01019G24KT M01/M06 A3049 RMK A01 T10081058  RH  069%=      5-min Rain = 0
KST2 112222Z 01023KT M01/M06 A3049 RMK A01 T10081059  RH  068%=      5-min Rain = 0
KST2 112223Z 01023G28KT M01/M06 A3049 RMK A01 T10081060  RH  068%=      5-min Rain = 0
KST2 112224Z 00023G28KT M01/M06 A3049 RMK A01 T10081060  RH  067%=      5-min Rain = 0
KST2 112225Z 00022G28KT M01/M06 A3049 RMK A01 T10071061  RH  067%=      5-min Rain = 0
KST2 112226Z 36027KT M01/M06 A3048 RMK A01 T10081061  RH  067%=      5-min Rain = 0
KST2 112227Z 00025G30KT M01/M06 A3048 RMK A01 T10081062  RH  067%=      5-min Rain = 0
KST2 112228Z 01025G30KT M01/M06 A3048 RMK A01 T10081063  RH  066%=      5-min Rain = 0
KST2 112229Z 36024G29KT M01/M06 A3048 RMK A01 T10081063  RH  066%=      5-min Rain = 0
KST2 112230Z 01023KT M01/M06 A3048 RMK A01 T10071061  RH  067%=      5-min Rain = 0
KST2 112231Z 36019KT M01/M06 A3048 RMK A01 T10071061  RH  067%=      5-min Rain = 0
KST2 112232Z 00019KT M01/M06 A3048 RMK A01 T10061059  RH  067%=      5-min Rain = 0
KST2 112233Z 00018KT M01/M06 A3048 RMK A01 T10061058  RH  068%=      5-min Rain = 0
KST2 112234Z 01020G26KT M01/M06 A3048 RMK A01 T10061059  RH  067%=      5-min Rain = 0
KST2 112235Z 01023G28KT M01/M06 A3048 RMK A01 T10061060  RH  067%=      5-min Rain = 0
KST2 112236Z 01021G26KT M01/M06 A3048 RMK A01 T10061062  RH  066%=      5-min Rain = 0
KST2 112237Z 01022KT M01/M06 A3048 RMK A01 T10071062  RH  066%=      5-min Rain = 0
KST2 112238Z 01024KT M01/M06 A3048 RMK A01 T10071062  RH  066%=      5-min Rain = 0
KST2 112239Z 01019KT M01/M06 A3048 RMK A01 T10071063  RH  066%=      5-min Rain = 0
KST2 112240Z 00021G27KT M01/M06 A3048 RMK A01 T10071063  RH  066%=      5-min Rain = 0
KST2 112241Z 01020G25KT M01/M06 A3049 RMK A01 T10071063  RH  066%=      5-min Rain = 0
KST2 112242Z 01021KT M01/M06 A3049 RMK A01 T10071062  RH  066%=      5-min Rain = 0
KST2 112243Z 01023KT M01/M06 A3049 RMK A01 T10071062  RH  066%=      5-min Rain = 0
KST2 112244Z 01021G26KT M01/M06 A3049 RMK A01 T10071062  RH  066%=      5-min Rain = 0
KST2 112245Z 01025KT M01/M06 A3049 RMK A01 T10071062  RH  066%=      5-min Rain = 0
KST2 112246Z 01023KT M01/M06 A3049 RMK A01 T10061064  RH  065%=      5-min Rain = 0
KST2 112247Z 01021KT M01/M06 A3049 RMK A01 T10071064  RH  065%=      5-min Rain = 0
KST2 112248Z 01020KT M01/M06 A3049 RMK A01 T10071063  RH  066%=      5-min Rain = 0
KST2 112249Z 01020G26KT M01/M06 A3049 RMK A01 T10071063  RH  066%=      5-min Rain = 0
KST2 112250Z 01024G29KT M01/M06 A3049 RMK A01 T10071062  RH  066%=      5-min Rain = 0
KST2 112251Z 01021KT M01/M06 A3049 RMK A01 T10061063  RH  066%=      5-min Rain = 0
KST2 112252Z 00018G23KT M01/M06 A3049 RMK A01 T10071063  RH  066%=      5-min Rain = 0
KST2 112253Z 00021G26KT M01/M06 A3049 RMK A01 T10071062  RH  066%=      5-min Rain = 0
KST2 112254Z 00023G28KT M01/M06 A305 RMK A01 T10061062  RH  066%=      5-min Rain = 0
KST2 112255Z 00020G25KT M01/M06 A305 RMK A01 T10071063  RH  065%=      5-min Rain = 0
KST2 112256Z 00024KT M01/M06 A305 RMK A01 T10071063  RH  066%=      5-min Rain = 0
KST2 112257Z 00021KT M01/M06 A305 RMK A01 T10071064  RH  065%=      5-min Rain = 0
KST2 112258Z 01023KT M01/M06 A305 RMK A01 T10071064  RH  066%=      5-min Rain = 0
KST2 112259Z 36025KT M01/M07 A305 RMK A01 T10071065  RH  065%=      5-min Rain = 0
KST2 112300Z 36027G33KT M01/M07 A305 RMK A01 T10081065  RH  065%=      5-min Rain = 0
KST2 112301Z 35029KT M01/M07 A305 RMK A01 T10081065  RH  066%=      5-min Rain = 0
KST2 112302Z 35029KT M01/M07 A305 RMK A01 T10081065  RH  065%=      5-min Rain = 0
KST2 112303Z 36029G34KT M01/M07 A305 RMK A01 T10081066  RH  065%=      5-min Rain = 0
KST2 112304Z 36026KT M01/M07 A3051 RMK A01 T10091067  RH  064%=      5-min Rain = 0
KST2 112305Z 36028KT M01/M07 A3051 RMK A01 T10091067  RH  065%=      5-min Rain = 0
KST2 112306Z 35028KT M01/M07 A3051 RMK A01 T10091067  RH  065%=      5-min Rain = 0
KST2 112307Z 36026KT M01/M07 A3051 RMK A01 T10091068  RH  065%=      5-min Rain = 0
KST2 112308Z 00023KT M01/M07 A3052 RMK A01 T10101067  RH  065%=      5-min Rain = 0
KST2 112309Z 00022KT M01/M07 A3052 RMK A01 T10091067  RH  065%=      5-min Rain = 0
KST2 112310Z 00024KT M01/M07 A3052 RMK A01 T10101069  RH  064%=      5-min Rain = 0
KST2 112311Z 01020G25KT M01/M07 A3052 RMK A01 T10101070  RH  064%=      5-min Rain = 0
KST2 112312Z 01020KT M01/M07 A3052 RMK A01 T10101070  RH  064%=      5-min Rain = 0
KST2 112313Z 01023G28KT M01/M07 A3052 RMK A01 T10101070  RH  064%=      5-min Rain = 0
KST2 112314Z 01024KT M01/M07 A3052 RMK A01 T10101071  RH  064%=      5-min Rain = 0
KST2 112315Z 01021KT M01/M07 A3052 RMK A01 T10111071  RH  063%=      5-min Rain = 0
KST2 112316Z 01023KT M01/M07 A3052 RMK A01 T10111070  RH  064%=      5-min Rain = 0
KST2 112317Z 02019KT M01/M07 A3052 RMK A01 T10111071  RH  064%=      5-min Rain = 0
KST2 112318Z 01019G27KT M01/M07 A3052 RMK A01 T10111070  RH  064%=      5-min Rain = 0
KST2 112319Z 01021KT M01/M07 A3052 RMK A01 T10111070  RH  064%=      5-min Rain = 0
KST2 112320Z 01022KT M01/M07 A3051 RMK A01 T10111071  RH  064%=      5-min Rain = 0
KST2 112321Z 01020KT M01/M07 A3051 RMK A01 T10111070  RH  064%=      5-min Rain = 0
KST2 112322Z 02018KT M01/M07 A3051 RMK A01 T10111070  RH  064%=      5-min Rain = 0
KST2 112323Z 02020KT M01/M07 A3051 RMK A01 T10111069  RH  065%=      5-min Rain = 0
KST2 112324Z 01018KT M01/M07 A3051 RMK A01 T10111070  RH  064%=      5-min Rain = 0
KST2 112325Z 01017KT M01/M07 A3052 RMK A01 T10111069  RH  065%=      5-min Rain = 0
KST2 112326Z 01016KT M01/M07 A3052 RMK A01 T10111069  RH  065%=      5-min Rain = 0
KST2 112327Z 02017KT M01/M07 A3052 RMK A01 T10111068  RH  065%=      5-min Rain = 0
KST2 112328Z 02018G23KT M01/M07 A3052 RMK A01 T10111068  RH  065%=      5-min Rain = 0
KST2 112329Z 01018KT M01/M07 A3052 RMK A01 T10111068  RH  065%=      5-min Rain = 0
KST2 112330Z 00021KT M01/M07 A3052 RMK A01 T10101068  RH  065%=      5-min Rain = 0
KST2 112331Z 01015G21KT M01/M07 A3052 RMK A01 T10101069  RH  064%=      5-min Rain = 0
KST2 112332Z 01015KT M01/M07 A3052 RMK A01 T10101068  RH  065%=      5-min Rain = 0
KST2 112333Z 00017G22KT M01/M07 A3052 RMK A01 T10101067  RH  065%=      5-min Rain = 0
KST2 112334Z 00024KT M01/M07 A3052 RMK A01 T10101070  RH  064%=      5-min Rain = 0
KST2 112335Z 01022KT M01/M07 A3052 RMK A01 T10101072  RH  063%=      5-min Rain = 0
KST2 112336Z 01024KT M01/M07 A3053 RMK A01 T10101072  RH  063%=      5-min Rain = 0
KST2 112337Z 01021KT M01/M07 A3053 RMK A01 T10101073  RH  062%=      5-min Rain = 0
KST2 112338Z 00020KT M01/M07 A3053 RMK A01 T10101073  RH  063%=      5-min Rain = 0
KST2 112339Z 01019G24KT M01/M07 A3053 RMK A01 T10101072  RH  063%=      5-min Rain = 0
KST2 112340Z 00019G24KT M01/M07 A3053 RMK A01 T10101071  RH  063%=      5-min Rain = 0
KST2 112341Z 36024KT M01/M07 A3053 RMK A01 T10101072  RH  063%=      5-min Rain = 0
KST2 112342Z 01019G25KT M01/M07 A3053 RMK A01 T10101073  RH  062%=      5-min Rain = 0
KST2 112343Z 00022KT M01/M07 A3053 RMK A01 T10101073  RH  062%=      5-min Rain = 0
KST2 112344Z 01023G28KT M01/M07 A3053 RMK A01 T10101074  RH  062%=      5-min Rain = 0
KST2 112345Z 01025KT M01/M07 A3053 RMK A01 T10091074  RH  062%=      5-min Rain = 0
KST2 112346Z 01023KT M01/M08 A3053 RMK A01 T10101075  RH  061%=      5-min Rain = 0
KST2 112347Z 01023KT M01/M08 A3053 RMK A01 T10111075  RH  061%=      5-min Rain = 0
KST2 112348Z 01020KT M01/M08 A3053 RMK A01 T10101075  RH  062%=      5-min Rain = 0
KST2 112349Z 01019KT M01/M07 A3053 RMK A01 T10101074  RH  062%=      5-min Rain = 0
KST2 112350Z 01020G25KT M01/M07 A3053 RMK A01 T10101073  RH  062%=      5-min Rain = 0
KST2 112351Z 00019G25KT M01/M07 A3053 RMK A01 T10101074  RH  062%=      5-min Rain = 0
KST2 112352Z 00019KT M01/M07 A3053 RMK A01 T10101074  RH  062%=      5-min Rain = 0
KST2 112353Z 00018KT M01/M07 A3054 RMK A01 T10101073  RH  062%=      5-min Rain = 0
KST2 112354Z 00020KT M01/M07 A3054 RMK A01 T10101072  RH  063%=      5-min Rain = 0
KST2 112355Z 00019KT M01/M07 A3054 RMK A01 T10091073  RH  062%=      5-min Rain = 0
KST2 112356Z 36021KT M01/M07 A3054 RMK A01 T10091073  RH  062%=      5-min Rain = 0
KST2 112357Z 00019KT M01/M07 A3054 RMK A01 T10091071  RH  063%=      5-min Rain = 0
KST2 112358Z 00022G29KT M01/M07 A3054 RMK A01 T10091071  RH  062%=      5-min Rain = 0
KST2 112359Z 01024G29KT M01/M07 A3054 RMK A01 T10091074  RH  061%=      5-min Rain = 0
KST2 120000Z 00024KT M01/M08 A3054 RMK A01 T10101075  RH  061%=      5-min Rain = 0
KST2 120001Z 00023KT M01/M08 A3054 RMK A01 T10101075  RH  061%=      5-min Rain = 0
KST2 120002Z 00023KT M01/M08 A3054 RMK A01 T10091075  RH  061%=      5-min Rain = 0
KST2 120003Z 01024G29KT M01/M08 A3054 RMK A01 T10091075  RH  061%=      5-min Rain = 0
KST2 120004Z 01023KT M01/M08 A3054 RMK A01 T10101075  RH  061%=      5-min Rain = 0
KST2 120005Z 01021KT M01/M08 A3054 RMK A01 T10101076  RH  061%=      5-min Rain = 0
KST2 120006Z 01024KT M01/M08 A3054 RMK A01 T10101076  RH  061%=      5-min Rain = 0
KST2 120007Z 01025KT M01/M08 A3054 RMK A01 T10101077  RH  060%=      5-min Rain = 0
KST2 120008Z 01022G28KT M01/M08 A3054 RMK A01 T10101077  RH  060%=      5-min Rain = 0
KST2 120009Z 01019KT M01/M08 A3054 RMK A01 T10101076  RH  061%=      5-min Rain = 0
KST2 120010Z 01019KT M01/M08 A3054 RMK A01 T10101075  RH  061%=      5-min Rain = 0
KST2 120011Z 01019G24KT M01/M08 A3054 RMK A01 T10101075  RH  062%=      5-min Rain = 0
KST2 120012Z 01016KT M01/M08 A3054 RMK A01 T10111075  RH  062%=      5-min Rain = 0
KST2 120013Z 01020G25KT M01/M07 A3054 RMK A01 T10101073  RH  062%=      5-min Rain = 0
KST2 120014Z 01018KT M01/M07 A3054 RMK A01 T10101074  RH  062%=      5-min Rain = 0
KST2 120015Z 01020G25KT M01/M07 A3054 RMK A01 T10101074  RH  062%=      5-min Rain = 0
KST2 120016Z 01022G27KT M01/M08 A3054 RMK A01 T10101075  RH  061%=      5-min Rain = 0
KST2 120017Z 01020KT M01/M08 A3055 RMK A01 T10101075  RH  061%=      5-min Rain = 0
KST2 120018Z 01020G25KT M01/M08 A3055 RMK A01 T10101075  RH  062%=      5-min Rain = 0
KST2 120019Z 01021KT M01/M08 A3055 RMK A01 T10101075  RH  062%=      5-min Rain = 0
KST2 120020Z 01022KT M01/M08 A3055 RMK A01 T10101075  RH  062%=      5-min Rain = 0
KST2 120021Z 01022KT M01/M08 A3055 RMK A01 T10111076  RH  061%=      5-min Rain = 0
KST2 120022Z 01022KT M01/M08 A3055 RMK A01 T10111075  RH  062%=      5-min Rain = 0
KST2 120023Z 01019KT M01/M08 A3055 RMK A01 T10111075  RH  062%=      5-min Rain = 0
KST2 120024Z 01017KT M01/M08 A3055 RMK A01 T10111075  RH  062%=      5-min Rain = 0
KST2 120025Z 00021KT M01/M07 A3055 RMK A01 T10111074  RH  062%=      5-min Rain = 0
KST2 120026Z 00022G27KT M01/M08 A3055 RMK A01 T10111075  RH  062%=      5-min Rain = 0
KST2 120027Z 01021KT M01/M08 A3055 RMK A01 T10111076  RH  061%=      5-min Rain = 0
KST2 120028Z 01023G29KT M01/M08 A3055 RMK A01 T10111076  RH  062%=      5-min Rain = 0
KST2 120029Z 01023KT M01/M08 A3055 RMK A01 T10111076  RH  061%=      5-min Rain = 0
KST2 120030Z 01022KT M01/M08 A3055 RMK A01 T10111076  RH  061%=      5-min Rain = 0
KST2 120031Z 01022G27KT M01/M08 A3055 RMK A01 T10111076  RH  061%=      5-min Rain = 0
KST2 120032Z 01021KT M01/M08 A3055 RMK A01 T10121076  RH  061%=      5-min Rain = 0
KST2 120033Z 01019KT M01/M08 A3055 RMK A01 T10111075  RH  062%=      5-min Rain = 0
KST2 120034Z 01022KT M01/M08 A3055 RMK A01 T10111075  RH  062%=      5-min Rain = 0
KST2 120035Z 01020KT M01/M08 A3055 RMK A01 T10111075  RH  062%=      5-min Rain = 0
KST2 120036Z 36022KT M01/M08 A3055 RMK A01 T10111075  RH  062%=      5-min Rain = 0
KST2 120037Z 01020KT M01/M08 A3055 RMK A01 T10111075  RH  062%=      5-min Rain = 0
KST2 120038Z 01018KT M01/M07 A3055 RMK A01 T10111074  RH  062%=      5-min Rain = 0
KST2 120039Z 01018KT M01/M07 A3055 RMK A01 T10111074  RH  062%=      5-min Rain = 0
KST2 120040Z 01018KT M01/M08 A3055 RMK A01 T10111075  RH  062%=      5-min Rain = 0
KST2 120041Z 01020KT M01/M08 A3055 RMK A01 T10111075  RH  062%=      5-min Rain = 0
KST2 120042Z 00021G27KT M01/M08 A3055 RMK A01 T10111075  RH  062%=      5-min Rain = 0
KST2 120043Z 01021KT M01/M08 A3055 RMK A01 T10111077  RH  061%=      5-min Rain = 0
KST2 120044Z 01022KT M01/M08 A3056 RMK A01 T10111077  RH  061%=      5-min Rain = 0
KST2 120045Z 01021KT M01/M08 A3056 RMK A01 T10111077  RH  061%=      5-min Rain = 0
KST2 120046Z 01021KT M01/M08 A3056 RMK A01 T10111077  RH  061%=      5-min Rain = 0
KST2 120047Z 00019KT M01/M08 A3056 RMK A01 T10111077  RH  061%=      5-min Rain = 0
KST2 120048Z 00019KT M01/M08 A3056 RMK A01 T10111076  RH  061%=      5-min Rain = 0
KST2 120049Z 01017KT M01/M08 A3056 RMK A01 T10111075  RH  062%=      5-min Rain = 0
KST2 120050Z 00018KT M01/M08 A3056 RMK A01 T10111075  RH  062%=      5-min Rain = 0
KST2 120051Z 01019KT M01/M08 A3056 RMK A01 T10111076  RH  061%=      5-min Rain = 0
KST2 120052Z 01019KT M01/M08 A3056 RMK A01 T10111076  RH  061%=      5-min Rain = 0
KST2 120053Z 01018KT M01/M08 A3056 RMK A01 T10111076  RH  062%=      5-min Rain = 0
KST2 120054Z 01022KT M01/M08 A3056 RMK A01 T10111076  RH  061%=      5-min Rain = 0
KST2 120055Z 01018G23KT M01/M08 A3056 RMK A01 T10111077  RH  061%=      5-min Rain = 0
KST2 120056Z 01021KT M01/M08 A3056 RMK A01 T10111077  RH  061%=      5-min Rain = 0
KST2 120057Z 01020KT M01/M08 A3056 RMK A01 T10111077  RH  061%=      5-min Rain = 0
KST2 120058Z 01021KT M01/M08 A3056 RMK A01 T10111078  RH  061%=      5-min Rain = 0
KST2 120059Z 01020KT M01/M08 A3056 RMK A01 T10111078  RH  061%=      5-min Rain = 0
KST2 120100Z 01020KT M01/M08 A3056 RMK A01 T10111077  RH  061%=      5-min Rain = 0
KST2 120101Z 00022KT M01/M08 A3056 RMK A01 T10111078  RH  061%=      5-min Rain = 0
KST2 120102Z 01020KT M01/M08 A3056 RMK A01 T10111079  RH  060%=      5-min Rain = 0
KST2 120103Z 01020KT M01/M08 A3056 RMK A01 T10111078  RH  060%=      5-min Rain = 0
KST2 120104Z 01017KT M01/M08 A3056 RMK A01 T10111078  RH  061%=      5-min Rain = 0
KST2 120105Z 01019KT M01/M08 A3057 RMK A01 T10111076  RH  061%=      5-min Rain = 0
KST2 120106Z 01020KT M01/M08 A3057 RMK A01 T10111077  RH  061%=      5-min Rain = 0
KST2 120107Z 01019KT M01/M08 A3057 RMK A01 T10111078  RH  061%=      5-min Rain = 0
KST2 120108Z 01019KT M01/M08 A3057 RMK A01 T10111077  RH  061%=      5-min Rain = 0
KST2 120109Z 01021KT M01/M08 A3057 RMK A01 T10111078  RH  060%=      5-min Rain = 0
KST2 120110Z 02020KT M01/M08 A3057 RMK A01 T10121079  RH  060%=      5-min Rain = 0
KST2 120111Z 01017KT M01/M08 A3057 RMK A01 T10121079  RH  060%=      5-min Rain = 0
KST2 120112Z 01018KT M01/M08 A3057 RMK A01 T10121078  RH  061%=      5-min Rain = 0
KST2 120113Z 01017KT M01/M08 A3057 RMK A01 T10111078  RH  061%=      5-min Rain = 0
KST2 120114Z 01019G24KT M01/M08 A3057 RMK A01 T10121077  RH  061%=      5-min Rain = 0
KST2 120115Z 01017G22KT M01/M08 A3057 RMK A01 T10121079  RH  060%=      5-min Rain = 0
KST2 120116Z 00019KT M01/M08 A3057 RMK A01 T10121078  RH  061%=      5-min Rain = 0
KST2 120117Z 01017KT M01/M08 A3058 RMK A01 T10121078  RH  061%=      5-min Rain = 0
KST2 120118Z 01016KT M01/M08 A3058 RMK A01 T10121078  RH  060%=      5-min Rain = 0
KST2 120119Z 01015KT M01/M08 A3058 RMK A01 T10121078  RH  061%=      5-min Rain = 0
KST2 120120Z 01013KT M01/M08 A3058 RMK A01 T10121077  RH  061%=      5-min Rain = 0
KST2 120121Z 00018KT M01/M08 A3058 RMK A01 T10121076  RH  062%=      5-min Rain = 0
KST2 120122Z 01018KT M01/M08 A3058 RMK A01 T10121078  RH  061%=      5-min Rain = 0
KST2 120123Z 01016KT M01/M08 A3058 RMK A01 T10121078  RH  061%=      5-min Rain = 0
KST2 120124Z 01012KT M01/M08 A3058 RMK A01 T10111076  RH  062%=      5-min Rain = 0
KST2 120125Z 01014KT M01/M07 A3058 RMK A01 T10121074  RH  062%=      5-min Rain = 0
KST2 120126Z 01016KT M01/M08 A3058 RMK A01 T10121076  RH  061%=      5-min Rain = 0
KST2 120127Z 01014KT M01/M08 A3059 RMK A01 T10121077  RH  061%=      5-min Rain = 0
KST2 120128Z 01016KT M01/M08 A3059 RMK A01 T10121077  RH  061%=      5-min Rain = 0
KST2 120129Z 01018KT M01/M08 A3059 RMK A01 T10121077  RH  061%=      5-min Rain = 0
KST2 120130Z 01016KT M01/M08 A3059 RMK A01 T10121078  RH  061%=      5-min Rain = 0
KST2 120131Z 00013KT M01/M08 A3059 RMK A01 T10121077  RH  061%=      5-min Rain = 0
KST2 120132Z 00015KT M01/M08 A3059 RMK A01 T10121076  RH  062%=      5-min Rain = 0
KST2 120133Z 01017KT M01/M08 A3059 RMK A01 T10121076  RH  062%=      5-min Rain = 0
KST2 120134Z 01016KT M01/M08 A3059 RMK A01 T10121076  RH  061%=      5-min Rain = 0
KST2 120135Z 01013KT M01/M08 A3059 RMK A01 T10121076  RH  062%=      5-min Rain = 0
KST2 120136Z 01016KT M01/M08 A3059 RMK A01 T10121075  RH  062%=      5-min Rain = 0
KST2 120137Z 01019KT M01/M08 A3058 RMK A01 T10121076  RH  062%=      5-min Rain = 0
KST2 120138Z 01018KT M01/M08 A3058 RMK A01 T10121076  RH  061%=      5-min Rain = 0
KST2 120139Z 01019KT M01/M08 A3058 RMK A01 T10121076  RH  062%=      5-min Rain = 0
KST2 120140Z 01016G21KT M01/M08 A3058 RMK A01 T10121076  RH  061%=      5-min Rain = 0
KST2 120141Z 01017KT M01/M08 A3058 RMK A01 T10121077  RH  061%=      5-min Rain = 0
KST2 120142Z 01017KT M01/M08 A3058 RMK A01 T10121077  RH  061%=      5-min Rain = 0
KST2 120143Z 01019KT M01/M08 A3058 RMK A01 T10121077  RH  061%=      5-min Rain = 0
KST2 120144Z 01019KT M01/M08 A3058 RMK A01 T10121077  RH  061%=      5-min Rain = 0
KST2 120145Z 01017KT M01/M08 A3058 RMK A01 T10121077  RH  061%=      5-min Rain = 0
KST2 120146Z 01018G23KT M01/M08 A3058 RMK A01 T10121076  RH  061%=      5-min Rain = 0
KST2 120147Z 00022KT M01/M08 A3058 RMK A01 T10121078  RH  061%=      5-min Rain = 0
KST2 120148Z 01020KT M01/M08 A3058 RMK A01 T10121079  RH  060%=      5-min Rain = 0
KST2 120149Z 01020KT M01/M08 A3058 RMK A01 T10121079  RH  060%=      5-min Rain = 0
KST2 120150Z 01020KT M01/M08 A3058 RMK A01 T10121080  RH  060%=      5-min Rain = 0
KST2 120151Z 01018G23KT M01/M08 A3059 RMK A01 T10121079  RH  060%=      5-min Rain = 0
KST2 120152Z 01021KT M01/M08 A3059 RMK A01 T10111079  RH  060%=      5-min Rain = 0
KST2 120153Z 00022G27KT M01/M08 A3059 RMK A01 T10111080  RH  059%=      5-min Rain = 0
KST2 120154Z 01022KT M01/M08 A3058 RMK A01 T10111081  RH  059%=      5-min Rain = 0
KST2 120155Z 01018KT M01/M08 A3058 RMK A01 T10111082  RH  059%=      5-min Rain = 0
KST2 120156Z 01020KT M01/M08 A3058 RMK A01 T10111081  RH  059%=      5-min Rain = 0
KST2 120157Z 01019KT M01/M08 A3058 RMK A01 T10111082  RH  059%=      5-min Rain = 0
KST2 120158Z 00016KT M01/M08 A3058 RMK A01 T10111081  RH  059%=      5-min Rain = 0
KST2 120159Z 01014KT M01/M08 A3059 RMK A01 T10111080  RH  059%=      5-min Rain = 0
KST2 120200Z 02019G25KT M01/M08 A3059 RMK A01 T10111079  RH  060%=      5-min Rain = 0
KST2 120201Z 01020KT M01/M08 A3059 RMK A01 T10111079  RH  060%=      5-min Rain = 0
KST2 120202Z 01020KT M01/M08 A3059 RMK A01 T10111080  RH  059%=      5-min Rain = 0
KST2 120203Z 01018KT M01/M08 A3058 RMK A01 T10111081  RH  059%=      5-min Rain = 0
KST2 120204Z 01016KT M01/M08 A3058 RMK A01 T10111080  RH  060%=      5-min Rain = 0
KST2 120205Z 00018KT M01/M08 A3059 RMK A01 T10111079  RH  060%=      5-min Rain = 0
KST2 120206Z 01021KT M01/M08 A3059 RMK A01 T10111080  RH  059%=      5-min Rain = 0
KST2 120207Z 01019KT M01/M08 A3059 RMK A01 T10111082  RH  059%=      5-min Rain = 0
KST2 120208Z 01018KT M01/M08 A3059 RMK A01 T10111082  RH  059%=      5-min Rain = 0
KST2 120209Z 01019G25KT M01/M08 A3059 RMK A01 T10111082  RH  059%=      5-min Rain = 0
KST2 120210Z 01023KT M01/M08 A3059 RMK A01 T10121083  RH  058%=      5-min Rain = 0
KST2 120211Z 01017KT M01/M08 A3059 RMK A01 T10121084  RH  058%=      5-min Rain = 0
KST2 120212Z 01020KT M01/M08 A3059 RMK A01 T10121083  RH  058%=      5-min Rain = 0
KST2 120213Z 01022KT M01/M08 A3059 RMK A01 T10121083  RH  058%=      5-min Rain = 0
KST2 120214Z 01023KT M01/M08 A3059 RMK A01 T10121084  RH  058%=      5-min Rain = 0
KST2 120215Z 00024KT M01/M09 A3059 RMK A01 T10121086  RH  057%=      5-min Rain = 0
KST2 120216Z 01023KT M01/M09 A3059 RMK A01 T10121087  RH  057%=      5-min Rain = 0
KST2 120217Z 01023G29KT M01/M09 A3059 RMK A01 T10121087  RH  057%=      5-min Rain = 0
KST2 120218Z 00023KT M01/M09 A3059 RMK A01 T10121087  RH  057%=      5-min Rain = 0
KST2 120219Z 01022KT M01/M09 A3059 RMK A01 T10121086  RH  057%=      5-min Rain = 0
KST2 120220Z 01021KT M01/M09 A3059 RMK A01 T10121087  RH  057%=      5-min Rain = 0
KST2 120221Z 01018KT M01/M09 A3059 RMK A01 T10121086  RH  057%=      5-min Rain = 0
KST2 120222Z 00020G25KT M01/M09 A306 RMK A01 T10121086  RH  057%=      5-min Rain = 0
KST2 120223Z 01016KT M01/M09 A306 RMK A01 T10121085  RH  058%=      5-min Rain = 0
KST2 120224Z 01018G24KT M01/M08 A306 RMK A01 T10121084  RH  058%=      5-min Rain = 0
KST2 120225Z 02022KT M01/M09 A306 RMK A01 T10121085  RH  058%=      5-min Rain = 0
KST2 120226Z 01023KT M01/M09 A306 RMK A01 T10131086  RH  057%=      5-min Rain = 0
KST2 120227Z 01021G28KT M01/M09 A306 RMK A01 T10131087  RH  057%=      5-min Rain = 0
KST2 120228Z 01023KT M01/M09 A306 RMK A01 T10131086  RH  057%=      5-min Rain = 0
KST2 120229Z 01022KT M01/M09 A306 RMK A01 T10131086  RH  057%=      5-min Rain = 0
KST2 120230Z 01021KT M01/M09 A306 RMK A01 T10131086  RH  057%=      5-min Rain = 0
KST2 120231Z 01019KT M01/M09 A306 RMK A01 T10131086  RH  058%=      5-min Rain = 0
KST2 120232Z 01021KT M01/M09 A306 RMK A01 T10131086  RH  058%=      5-min Rain = 0
KST2 120233Z 01017KT M01/M09 A306 RMK A01 T10131087  RH  057%=      5-min Rain = 0
KST2 120234Z 02016KT M01/M09 A306 RMK A01 T10131085  RH  058%=      5-min Rain = 0
KST2 120235Z 01018KT M01/M08 A306 RMK A01 T10131084  RH  059%=      5-min Rain = 0
KST2 120236Z 01014KT M01/M08 A306 RMK A01 T10131084  RH  059%=      5-min Rain = 0
KST2 120237Z 01015KT M01/M08 A306 RMK A01 T10141083  RH  059%=      5-min Rain = 0
KST2 120238Z 01015G22KT M01/M08 A306 RMK A01 T10131083  RH  059%=      5-min Rain = 0
KST2 120239Z 01017KT M01/M08 A306 RMK A01 T10131083  RH  059%=      5-min Rain = 0
KST2 120240Z 01016KT M01/M08 A306 RMK A01 T10141083  RH  059%=      5-min Rain = 0
KST2 120241Z 01018KT M01/M08 A306 RMK A01 T10141084  RH  059%=      5-min Rain = 0
KST2 120242Z 01018KT M01/M08 A306 RMK A01 T10141084  RH  059%=      5-min Rain = 0
KST2 120243Z 01014G19KT M01/M08 A306 RMK A01 T10141084  RH  059%=      5-min Rain = 0
KST2 120244Z 01013KT M01/M08 A306 RMK A01 T10141082  RH  060%=      5-min Rain = 0
KST2 120245Z 01015KT M01/M08 A3061 RMK A01 T10141082  RH  060%=      5-min Rain = 0
KST2 120246Z 01015KT M01/M08 A3061 RMK A01 T10141082  RH  060%=      5-min Rain = 0
KST2 120247Z 01015KT M01/M08 A3061 RMK A01 T10141083  RH  059%=      5-min Rain = 0
KST2 120248Z 01017KT M01/M08 A3061 RMK A01 T10141083  RH  059%=      5-min Rain = 0
KST2 120249Z 01019KT M01/M08 A3061 RMK A01 T10141084  RH  059%=      5-min Rain = 0
KST2 120250Z 01016KT M02/M09 A3061 RMK A01 T10151085  RH  059%=      5-min Rain = 0
KST2 120251Z 01017KT M02/M08 A3061 RMK A01 T10151084  RH  059%=      5-min Rain = 0
KST2 120252Z 01020KT M02/M09 A3061 RMK A01 T10151085  RH  059%=      5-min Rain = 0
KST2 120253Z 01020KT M02/M09 A3061 RMK A01 T10151086  RH  058%=      5-min Rain = 0
KST2 120254Z 02020KT M02/M09 A3061 RMK A01 T10151087  RH  058%=      5-min Rain = 0
KST2 120255Z 01019KT M02/M09 A3061 RMK A01 T10151087  RH  058%=      5-min Rain = 0
KST2 120256Z 01021G26KT M02/M09 A3061 RMK A01 T10151087  RH  058%=      5-min Rain = 0
KST2 120257Z 01016KT M02/M09 A3061 RMK A01 T10151088  RH  057%=      5-min Rain = 0
KST2 120258Z 01018KT M02/M09 A3061 RMK A01 T10151088  RH  058%=      5-min Rain = 0
KST2 120259Z 36025KT M02/M09 A3061 RMK A01 T10161089  RH  057%=      5-min Rain = 0
KST2 120300Z 00021KT M02/M09 A3061 RMK A01 T10161091  RH  057%=      5-min Rain = 0
KST2 120301Z 00020KT M02/M09 A3061 RMK A01 T10161090  RH  057%=      5-min Rain = 0
KST2 120302Z 00020KT M02/M09 A3061 RMK A01 T10161090  RH  057%=      5-min Rain = 0
KST2 120303Z 01021KT M02/M09 A3061 RMK A01 T10161091  RH  057%=      5-min Rain = 0
KST2 120304Z 01018KT M02/M09 A3061 RMK A01 T10161091  RH  056%=      5-min Rain = 0
KST2 120305Z 01016KT M02/M09 A3061 RMK A01 T10161090  RH  057%=      5-min Rain = 0
KST2 120306Z 01017KT M02/M09 A3061 RMK A01 T10161090  RH  057%=      5-min Rain = 0
KST2 120307Z 01014KT M02/M09 A3062 RMK A01 T10171089  RH  058%=      5-min Rain = 0
KST2 120308Z 02018KT M02/M09 A3062 RMK A01 T10161088  RH  058%=      5-min Rain = 0
KST2 120309Z 01019G24KT M02/M09 A3062 RMK A01 T10161087  RH  058%=      5-min Rain = 0
KST2 120310Z 01020KT M02/M09 A3062 RMK A01 T10161088  RH  058%=      5-min Rain = 0
KST2 120311Z 01021KT M02/M09 A3062 RMK A01 T10171089  RH  058%=      5-min Rain = 0
KST2 120312Z 01022KT M02/M09 A3062 RMK A01 T10171091  RH  057%=      5-min Rain = 0
KST2 120313Z 01019KT M02/M09 A3062 RMK A01 T10171092  RH  057%=      5-min Rain = 0
KST2 120314Z 01019KT M02/M09 A3062 RMK A01 T10181091  RH  057%=      5-min Rain = 0
KST2 120315Z 01020KT M02/M09 A3062 RMK A01 T10181091  RH  057%=      5-min Rain = 0
KST2 120316Z 01021G26KT M02/M09 A3062 RMK A01 T10181092  RH  057%=      5-min Rain = 0
KST2 120317Z 01019G25KT M02/M09 A3062 RMK A01 T10181092  RH  057%=      5-min Rain = 0
KST2 120318Z 01019KT M02/M09 A3062 RMK A01 T10181092  RH  057%=      5-min Rain = 0
KST2 120319Z 02019G24KT M02/M09 A3062 RMK A01 T10181091  RH  057%=      5-min Rain = 0
KST2 120320Z 02019KT M02/M09 A3062 RMK A01 T10181090  RH  058%=      5-min Rain = 0
KST2 120321Z 02019KT M02/M09 A3062 RMK A01 T10181091  RH  057%=      5-min Rain = 0
KST2 120322Z 02020KT M02/M09 A3062 RMK A01 T10191092  RH  057%=      5-min Rain = 0
KST2 120323Z 02017KT M02/M09 A3062 RMK A01 T10191092  RH  057%=      5-min Rain = 0
KST2 120324Z 02017KT M02/M09 A3062 RMK A01 T10191090  RH  058%=      5-min Rain = 0
KST2 120325Z 01016KT M02/M09 A3062 RMK A01 T10191090  RH  058%=      5-min Rain = 0
KST2 120326Z 01017G22KT M02/M09 A3062 RMK A01 T10191090  RH  058%=      5-min Rain = 0
KST2 120327Z 02019KT M02/M09 A3062 RMK A01 T10191091  RH  058%=      5-min Rain = 0
KST2 120328Z 01021G26KT M02/M09 A3062 RMK A01 T10191092  RH  057%=      5-min Rain = 0
KST2 120329Z 02020KT M02/M09 A3062 RMK A01 T10191093  RH  057%=      5-min Rain = 0
KST2 120330Z 01021KT M02/M09 A3062 RMK A01 T10191093  RH  057%=      5-min Rain = 0
KST2 120331Z 01022KT M02/M09 A3062 RMK A01 T10191093  RH  057%=      5-min Rain = 0
KST2 120332Z 01023KT M02/M09 A3062 RMK A01 T10191093  RH  057%=      5-min Rain = 0
KST2 120333Z 01020KT M02/M09 A3063 RMK A01 T10191094  RH  057%=      5-min Rain = 0
KST2 120334Z 01020KT M02/M09 A3063 RMK A01 T10201094  RH  057%=      5-min Rain = 0
KST2 120335Z 01017KT M02/M09 A3063 RMK A01 T10201092  RH  058%=      5-min Rain = 0
KST2 120336Z 01016KT M02/M09 A3063 RMK A01 T10201092  RH  058%=      5-min Rain = 0
KST2 120337Z 01018KT M02/M09 A3063 RMK A01 T10201091  RH  058%=      5-min Rain = 0
KST2 120338Z 02018KT M02/M09 A3063 RMK A01 T10201091  RH  058%=      5-min Rain = 0
KST2 120339Z 02022KT M02/M09 A3063 RMK A01 T10201091  RH  058%=      5-min Rain = 0
KST2 120340Z 02021KT M02/M09 A3063 RMK A01 T10201094  RH  057%=      5-min Rain = 0
KST2 120341Z 01016KT M02/M09 A3063 RMK A01 T10211093  RH  058%=      5-min Rain = 0
KST2 120342Z 01014G19KT M02/M09 A3063 RMK A01 T10201091  RH  059%=      5-min Rain = 0
KST2 120343Z 01020KT M02/M09 A3063 RMK A01 T10201090  RH  059%=      5-min Rain = 0
KST2 120344Z 01022KT M02/M09 A3063 RMK A01 T10201092  RH  058%=      5-min Rain = 0
KST2 120345Z 01020KT M02/M09 A3063 RMK A01 T10201092  RH  058%=      5-min Rain = 0
KST2 120346Z 01017KT M02/M09 A3063 RMK A01 T10211093  RH  058%=      5-min Rain = 0
KST2 120347Z 01016KT M02/M09 A3063 RMK A01 T10211092  RH  058%=      5-min Rain = 0
KST2 120348Z 01015KT M02/M09 A3063 RMK A01 T10211091  RH  059%=      5-min Rain = 0
KST2 120349Z 01016KT M02/M09 A3063 RMK A01 T10211091  RH  059%=      5-min Rain = 0
KST2 120350Z 01019KT M02/M09 A3063 RMK A01 T10211091  RH  059%=      5-min Rain = 0
KST2 120351Z 01019KT M02/M09 A3063 RMK A01 T10211092  RH  058%=      5-min Rain = 0
KST2 120352Z 01017KT M02/M09 A3063 RMK A01 T10211092  RH  058%=      5-min Rain = 0
KST2 120353Z 01019KT M02/M09 A3064 RMK A01 T10211091  RH  059%=      5-min Rain = 0
KST2 120354Z 01018G23KT M02/M09 A3064 RMK A01 T10211091  RH  059%=      5-min Rain = 0
KST2 120355Z 01019KT M02/M09 A3064 RMK A01 T10211092  RH  059%=      5-min Rain = 0
KST2 120356Z 01020KT M02/M09 A3064 RMK A01 T10221093  RH  058%=      5-min Rain = 0
KST2 120357Z 01017KT M02/M09 A3064 RMK A01 T10211092  RH  058%=      5-min Rain = 0
KST2 120358Z 02018KT M02/M09 A3064 RMK A01 T10211092  RH  059%=      5-min Rain = 0
KST2 120359Z 02017KT M02/M09 A3064 RMK A01 T10211091  RH  059%=      5-min Rain = 0
KST2 120400Z 00016KT M02/M09 A3064 RMK A01 T10211091  RH  059%=      5-min Rain = 0
KST2 120401Z 01016KT M02/M09 A3064 RMK A01 T10221092  RH  059%=      5-min Rain = 0
KST2 120402Z 01016KT M02/M09 A3064 RMK A01 T10221092  RH  059%=      5-min Rain = 0
KST2 120403Z 01016KT M02/M09 A3064 RMK A01 T10221092  RH  059%=      5-min Rain = 0
KST2 120404Z 01017KT M02/M09 A3064 RMK A01 T10221092  RH  059%=      5-min Rain = 0
KST2 120405Z 01017KT M02/M09 A3064 RMK A01 T10221092  RH  059%=      5-min Rain = 0
KST2 120406Z 01013KT M02/M09 A3064 RMK A01 T10221091  RH  059%=      5-min Rain = 0
KST2 120407Z 01015KT M02/M09 A3064 RMK A01 T10221089  RH  060%=      5-min Rain = 0
KST2 120408Z 01014KT M02/M09 A3064 RMK A01 T10221089  RH  060%=      5-min Rain = 0
KST2 120409Z 01019G24KT M02/M09 A3064 RMK A01 T10221090  RH  060%=      5-min Rain = 0
KST2 120410Z 01018KT M02/M09 A3064 RMK A01 T10221091  RH  059%=      5-min Rain = 0
KST2 120411Z 00019G24KT M02/M09 A3064 RMK A01 T10221091  RH  059%=      5-min Rain = 0
KST2 120412Z 01016KT M02/M09 A3064 RMK A01 T10221091  RH  059%=      5-min Rain = 0
KST2 120413Z 01016KT M02/M09 A3064 RMK A01 T10221091  RH  060%=      5-min Rain = 0
KST2 120414Z 01016KT M02/M09 A3064 RMK A01 T10221091  RH  059%=      5-min Rain = 0
KST2 120415Z 01017G24KT M02/M09 A3064 RMK A01 T10231091  RH  059%=      5-min Rain = 0
KST2 120416Z 01018KT M02/M09 A3064 RMK A01 T10231091  RH  059%=      5-min Rain = 0
KST2 120417Z 01018KT M02/M09 A3064 RMK A01 T10231091  RH  059%=      5-min Rain = 0
KST2 120418Z 01016KT M02/M09 A3064 RMK A01 T10231091  RH  059%=      5-min Rain = 0
KST2 120419Z 02014KT M02/M09 A3064 RMK A01 T10231090  RH  060%=      5-min Rain = 0
KST2 120420Z 01014KT M02/M09 A3064 RMK A01 T10231089  RH  061%=      5-min Rain = 0
KST2 120421Z 01014KT M02/M09 A3064 RMK A01 T10231089  RH  061%=      5-min Rain = 0
KST2 120422Z 01018G23KT M02/M09 A3064 RMK A01 T10231090  RH  060%=      5-min Rain = 0
KST2 120423Z 01018KT M02/M09 A3064 RMK A01 T10231091  RH  060%=      5-min Rain = 0
KST2 120424Z 01019KT M02/M09 A3064 RMK A01 T10241091  RH  060%=      5-min Rain = 0
KST2 120425Z 01018KT M02/M09 A3064 RMK A01 T10241092  RH  059%=      5-min Rain = 0
KST2 120426Z 01018KT M02/M09 A3064 RMK A01 T10241093  RH  059%=      5-min Rain = 0
KST2 120427Z 01016KT M02/M09 A3064 RMK A01 T10241093  RH  059%=      5-min Rain = 0
KST2 120428Z 01018G24KT M02/M09 A3064 RMK A01 T10241092  RH  059%=      5-min Rain = 0
KST2 120429Z 01018KT M02/M09 A3064 RMK A01 T10241093  RH  059%=      5-min Rain = 0
KST2 120430Z 01016KT M02/M09 A3064 RMK A01 T10241093  RH  059%=      5-min Rain = 0
KST2 120431Z 01015KT M02/M09 A3064 RMK A01 T10241092  RH  060%=      5-min Rain = 0
KST2 120432Z 02015KT M02/M09 A3064 RMK A01 T10241091  RH  060%=      5-min Rain = 0
KST2 120433Z 01014KT M02/M09 A3064 RMK A01 T10241090  RH  060%=      5-min Rain = 0
KST2 120434Z 01014KT M02/M09 A3065 RMK A01 T10241090  RH  060%=      5-min Rain = 0
KST2 120435Z 02016G21KT M02/M09 A3065 RMK A01 T10241090  RH  060%=      5-min Rain = 0
KST2 120436Z 01016KT M02/M09 A3065 RMK A01 T10241091  RH  060%=      5-min Rain = 0
KST2 120437Z 02017KT M02/M09 A3065 RMK A01 T10241092  RH  059%=      5-min Rain = 0
KST2 120438Z 02021KT M02/M09 A3064 RMK A01 T10241093  RH  059%=      5-min Rain = 0
KST2 120439Z 02018KT M03/M09 A3064 RMK A01 T10251094  RH  059%=      5-min Rain = 0
KST2 120440Z 01021KT M02/M09 A3064 RMK A01 T10241094  RH  059%=      5-min Rain = 0
KST2 120441Z 01021KT M03/M10 A3064 RMK A01 T10251096  RH  058%=      5-min Rain = 0
KST2 120442Z 02019KT M02/M10 A3064 RMK A01 T10241097  RH  058%=      5-min Rain = 0
KST2 120443Z 01019KT M03/M10 A3064 RMK A01 T10251096  RH  058%=      5-min Rain = 0
KST2 120444Z 01020KT M02/M10 A3064 RMK A01 T10241095  RH  058%=      5-min Rain = 0
KST2 120445Z 02017KT M02/M09 A3064 RMK A01 T10241094  RH  059%=      5-min Rain = 0
KST2 120446Z 02015KT M03/M09 A3064 RMK A01 T10251093  RH  059%=      5-min Rain = 0
KST2 120447Z 02014G20KT M03/M09 A3064 RMK A01 T10251092  RH  060%=      5-min Rain = 0
KST2 120448Z 01015KT M03/M09 A3064 RMK A01 T10251092  RH  060%=      5-min Rain = 0
KST2 120449Z 00014KT M03/M09 A3064 RMK A01 T10251093  RH  060%=      5-min Rain = 0
KST2 120450Z 00015KT M03/M09 A3064 RMK A01 T10251092  RH  060%=      5-min Rain = 0
KST2 120451Z 01014KT M03/M09 A3064 RMK A01 T10251093  RH  060%=      5-min Rain = 0
KST2 120452Z 02017KT M03/M09 A3065 RMK A01 T10261092  RH  060%=      5-min Rain = 0
KST2 120453Z 01017KT M03/M09 A3065 RMK A01 T10251093  RH  060%=      5-min Rain = 0
KST2 120454Z 01015KT M03/M09 A3064 RMK A01 T10261094  RH  060%=      5-min Rain = 0
KST2 120455Z 02014KT M03/M09 A3064 RMK A01 T10261093  RH  060%=      5-min Rain = 0
KST2 120456Z 01014KT M03/M09 A3064 RMK A01 T10261093  RH  060%=      5-min Rain = 0
KST2 120457Z 01013KT M03/M09 A3064 RMK A01 T10261092  RH  060%=      5-min Rain = 0
KST2 120458Z 01016KT M03/M09 A3064 RMK A01 T10261092  RH  060%=      5-min Rain = 0
KST2 120459Z 01016KT M03/M09 A3064 RMK A01 T10261093  RH  060%=      5-min Rain = 0
KST2 120500Z 01016KT M03/M09 A3064 RMK A01 T10261094  RH  060%=      5-min Rain = 0
KST2 120501Z 02016KT M03/M09 A3064 RMK A01 T10261094  RH  060%=      5-min Rain = 0
KST2 120502Z 01014KT M03/M09 A3065 RMK A01 T10261094  RH  060%=      5-min Rain = 0
KST2 120503Z 01015KT M03/M09 A3065 RMK A01 T10261093  RH  060%=      5-min Rain = 0
KST2 120504Z 01015KT M03/M09 A3065 RMK A01 T10261094  RH  060%=      5-min Rain = 0
KST2 120505Z 01013KT M03/M09 A3065 RMK A01 T10261093  RH  060%=      5-min Rain = 0
KST2 120506Z 01015G20KT M03/M09 A3065 RMK A01 T10271093  RH  060%=      5-min Rain = 0
KST2 120507Z 01014KT M03/M09 A3065 RMK A01 T10271094  RH  060%=      5-min Rain = 0
KST2 120508Z 01014KT M03/M09 A3065 RMK A01 T10271093  RH  060%=      5-min Rain = 0
KST2 120509Z 01014KT M03/M09 A3065 RMK A01 T10271093  RH  060%=      5-min Rain = 0
KST2 120510Z 00016KT M03/M09 A3065 RMK A01 T10271094  RH  060%=      5-min Rain = 0
KST2 120511Z 01015KT M03/M09 A3065 RMK A01 T10271094  RH  060%=      5-min Rain = 0
KST2 120512Z 01014KT M03/M09 A3065 RMK A01 T10271094  RH  060%=      5-min Rain = 0
KST2 120513Z 02011KT M03/M09 A3065 RMK A01 T10271093  RH  061%=      5-min Rain = 0
KST2 120514Z 01010KT M03/M09 A3065 RMK A01 T10271091  RH  061%=      5-min Rain = 0
KST2 120515Z 02013KT M03/M09 A3065 RMK A01 T10271091  RH  061%=      5-min Rain = 0
KST2 120516Z 02016KT M03/M09 A3065 RMK A01 T10271093  RH  061%=      5-min Rain = 0
KST2 120517Z 01015KT M03/M09 A3065 RMK A01 T10271094  RH  060%=      5-min Rain = 0
KST2 120518Z 01016KT M03/M09 A3065 RMK A01 T10271094  RH  060%=      5-min Rain = 0
KST2 120519Z 02015KT M03/M09 A3065 RMK A01 T10271094  RH  060%=      5-min Rain = 0
KST2 120520Z 01014KT M03/M09 A3065 RMK A01 T10271094  RH  060%=      5-min Rain = 0
KST2 120521Z 01012KT M03/M09 A3065 RMK A01 T10271092  RH  061%=      5-min Rain = 0
KST2 120522Z 02013KT M03/M09 A3065 RMK A01 T10271091  RH  061%=      5-min Rain = 0
KST2 120523Z 01017KT M03/M09 A3065 RMK A01 T10281093  RH  061%=      5-min Rain = 0
KST2 120524Z 01019KT M03/M10 A3065 RMK A01 T10281095  RH  060%=      5-min Rain = 0
KST2 120525Z 01016KT M03/M10 A3065 RMK A01 T10281096  RH  059%=      5-min Rain = 0
KST2 120526Z 01017KT M03/M10 A3065 RMK A01 T10281095  RH  060%=      5-min Rain = 0
KST2 120527Z 01016KT M03/M10 A3065 RMK A01 T10281095  RH  060%=      5-min Rain = 0
KST2 120528Z 01014KT M03/M10 A3065 RMK A01 T10281095  RH  060%=      5-min Rain = 0
KST2 120529Z 01014KT M03/M10 A3065 RMK A01 T10281095  RH  060%=      5-min Rain = 0
KST2 120530Z 02017KT M03/M09 A3065 RMK A01 T10281094  RH  060%=      5-min Rain = 0
KST2 120531Z 01016KT M03/M10 A3065 RMK A01 T10281095  RH  060%=      5-min Rain = 0
KST2 120532Z 01017KT M03/M10 A3065 RMK A01 T10281095  RH  060%=      5-min Rain = 0
KST2 120533Z 01017KT M03/M10 A3065 RMK A01 T10281095  RH  060%=      5-min Rain = 0
KST2 120534Z 01015KT M03/M10 A3065 RMK A01 T10281096  RH  060%=      5-min Rain = 0
KST2 120535Z 01015KT M03/M10 A3065 RMK A01 T10281095  RH  060%=      5-min Rain = 0
KST2 120536Z 01017KT M03/M10 A3065 RMK A01 T10281095  RH  060%=      5-min Rain = 0
KST2 120537Z 01016KT M03/M10 A3065 RMK A01 T10281095  RH  060%=      5-min Rain = 0
KST2 120538Z 01016KT M03/M10 A3065 RMK A01 T10281096  RH  060%=      5-min Rain = 0
KST2 120539Z 01016KT M03/M10 A3065 RMK A01 T10281096  RH  060%=      5-min Rain = 0
KST2 120540Z 01018KT M03/M10 A3065 RMK A01 T10291096  RH  060%=      5-min Rain = 0
KST2 120541Z 01014KT M03/M10 A3065 RMK A01 T10291096  RH  060%=      5-min Rain = 0
KST2 120542Z 01016KT M03/M10 A3065 RMK A01 T10291096  RH  060%=      5-min Rain = 0
KST2 120543Z 01018KT M03/M10 A3065 RMK A01 T10291097  RH  060%=      5-min Rain = 0
KST2 120544Z 01016KT M03/M10 A3065 RMK A01 T10291097  RH  059%=      5-min Rain = 0
KST2 120545Z 01017KT M03/M10 A3065 RMK A01 T10291097  RH  059%=      5-min Rain = 0
KST2 120546Z 01018G23KT M03/M10 A3065 RMK A01 T10291097  RH  059%=      5-min Rain = 0
KST2 120547Z 01017KT M03/M10 A3065 RMK A01 T10291097  RH  060%=      5-min Rain = 0
KST2 120548Z 01017KT M03/M10 A3065 RMK A01 T10291097  RH  060%=      5-min Rain = 0
KST2 120549Z 01017G23KT M03/M10 A3065 RMK A01 T10291097  RH  059%=      5-min Rain = 0
KST2 120550Z 01017KT M03/M10 A3065 RMK A01 T10291097  RH  059%=      5-min Rain = 0
KST2 120551Z 01018KT M03/M10 A3065 RMK A01 T10291098  RH  059%=      5-min Rain = 0
KST2 120552Z 01016KT M03/M10 A3065 RMK A01 T10291098  RH  059%=      5-min Rain = 0
KST2 120553Z 01015KT M03/M10 A3065 RMK A01 T10291097  RH  060%=      5-min Rain = 0
KST2 120554Z 01014KT M03/M10 A3065 RMK A01 T10291096  RH  060%=      5-min Rain = 0
KST2 120555Z 01014KT M03/M10 A3065 RMK A01 T10291095  RH  060%=      5-min Rain = 0
KST2 120556Z 01014KT M03/M10 A3065 RMK A01 T10301096  RH  060%=      5-min Rain = 0
KST2 120557Z 01016KT M03/M10 A3065 RMK A01 T10301096  RH  060%=      5-min Rain = 0
KST2 120558Z 01016KT M03/M10 A3064 RMK A01 T10301096  RH  060%=      5-min Rain = 0
KST2 120559Z 01015KT M03/M10 A3064 RMK A01 T10301096  RH  060%=      5-min Rain = 0

Page generated in 0.122 seconds.